<?xml version="1.0" encoding="UTF-8" standalone="no" ?>
<gpx xmlns="http://www.topografix.com/GPX/1/1" xmlns:xsi="http://www.w3.org/2001/XMLSchema-instance" xsi:schemaLocation="http://www.topografix.com/GPX/1/1 http://www.topografix.com/GPX/1/1/gpx.xsd" version="1.1" creator="VisuGPX - https://www.visugpx.com">
  <metadata>
    <name>tricotage mont du matin</name>
    <desc><![CDATA[pas trop la forme, mais une sortie longue hivernale]]></desc>
  </metadata>
  <trk>
    <name><![CDATA[tricotage mont du Matin Nord]]></name>
    <desc><![CDATA[pas réussi a traverser la crete. De beaux chemins, surtout tout le coté Est. Départ Rochenard]]></desc>
    <trkseg>
      <trkpt lat="45.03136" lon="5.24543">
        <ele>474</ele>
        <time>2010-11-11T13:27:12.000Z</time>
      </trkpt>
      <trkpt lat="45.03136" lon="5.2454">
        <ele>474</ele>
        <time>2010-11-11T13:27:15.000Z</time>
      </trkpt>
      <trkpt lat="45.0314" lon="5.24504">
        <ele>473.79998779297</ele>
        <time>2010-11-11T13:27:25.000Z</time>
      </trkpt>
      <trkpt lat="45.03141" lon="5.24499">
        <ele>473.79998779297</ele>
        <time>2010-11-11T13:27:26.000Z</time>
      </trkpt>
      <trkpt lat="45.03145" lon="5.24484">
        <ele>473.79998779297</ele>
        <time>2010-11-11T13:27:30.000Z</time>
      </trkpt>
      <trkpt lat="45.03152" lon="5.24465">
        <ele>473.79998779297</ele>
        <time>2010-11-11T13:27:35.000Z</time>
      </trkpt>
      <trkpt lat="45.03158" lon="5.24439">
        <ele>474</ele>
        <time>2010-11-11T13:27:43.000Z</time>
      </trkpt>
      <trkpt lat="45.0316" lon="5.24432">
        <ele>474.20001220703</ele>
        <time>2010-11-11T13:27:45.000Z</time>
      </trkpt>
      <trkpt lat="45.03165" lon="5.244">
        <ele>475.20001220703</ele>
        <time>2010-11-11T13:27:54.000Z</time>
      </trkpt>
      <trkpt lat="45.03174" lon="5.24374">
        <ele>476.20001220703</ele>
        <time>2010-11-11T13:28:01.000Z</time>
      </trkpt>
      <trkpt lat="45.03181" lon="5.24354">
        <ele>477</ele>
        <time>2010-11-11T13:28:07.000Z</time>
      </trkpt>
      <trkpt lat="45.03189" lon="5.24333">
        <ele>477.79998779297</ele>
        <time>2010-11-11T13:28:13.000Z</time>
      </trkpt>
      <trkpt lat="45.03209" lon="5.24319">
        <ele>477.20001220703</ele>
        <time>2010-11-11T13:28:21.000Z</time>
      </trkpt>
      <trkpt lat="45.03228" lon="5.24305">
        <ele>477</ele>
        <time>2010-11-11T13:28:28.000Z</time>
      </trkpt>
      <trkpt lat="45.03246" lon="5.2429">
        <ele>477.39999389648</ele>
        <time>2010-11-11T13:28:35.000Z</time>
      </trkpt>
      <trkpt lat="45.03257" lon="5.24274">
        <ele>479</ele>
        <time>2010-11-11T13:28:41.000Z</time>
      </trkpt>
      <trkpt lat="45.03266" lon="5.24257">
        <ele>481.20001220703</ele>
        <time>2010-11-11T13:28:47.000Z</time>
      </trkpt>
      <trkpt lat="45.03275" lon="5.24244">
        <ele>485.20001220703</ele>
        <time>2010-11-11T13:28:52.000Z</time>
      </trkpt>
      <trkpt lat="45.03282" lon="5.24238">
        <ele>488</ele>
        <time>2010-11-11T13:28:57.000Z</time>
      </trkpt>
      <trkpt lat="45.03291" lon="5.2423">
        <ele>491.79998779297</ele>
        <time>2010-11-11T13:29:01.000Z</time>
      </trkpt>
      <trkpt lat="45.03302" lon="5.2423">
        <ele>492.60000610352</ele>
        <time>2010-11-11T13:29:06.000Z</time>
      </trkpt>
      <trkpt lat="45.03313" lon="5.24231">
        <ele>492</ele>
        <time>2010-11-11T13:29:11.000Z</time>
      </trkpt>
      <trkpt lat="45.03331" lon="5.24234">
        <ele>491.60000610352</ele>
        <time>2010-11-11T13:29:17.000Z</time>
      </trkpt>
      <trkpt lat="45.0334" lon="5.24242">
        <ele>487.60000610352</ele>
        <time>2010-11-11T13:29:20.000Z</time>
      </trkpt>
      <trkpt lat="45.03348" lon="5.24251">
        <ele>484</ele>
        <time>2010-11-11T13:29:23.000Z</time>
      </trkpt>
      <trkpt lat="45.03367" lon="5.24256">
        <ele>483</ele>
        <time>2010-11-11T13:29:30.000Z</time>
      </trkpt>
      <trkpt lat="45.03379" lon="5.24247">
        <ele>486</ele>
        <time>2010-11-11T13:29:36.000Z</time>
      </trkpt>
      <trkpt lat="45.03404" lon="5.24246">
        <ele>486.79998779297</ele>
        <time>2010-11-11T13:29:45.000Z</time>
      </trkpt>
      <trkpt lat="45.03411" lon="5.24248">
        <ele>485.79998779297</ele>
        <time>2010-11-11T13:29:48.000Z</time>
      </trkpt>
      <trkpt lat="45.03418" lon="5.24251">
        <ele>485</ele>
        <time>2010-11-11T13:29:52.000Z</time>
      </trkpt>
      <trkpt lat="45.03433" lon="5.24253">
        <ele>487.20001220703</ele>
        <time>2010-11-11T13:29:58.000Z</time>
      </trkpt>
      <trkpt lat="45.03443" lon="5.24254">
        <ele>488.60000610352</ele>
        <time>2010-11-11T13:30:02.000Z</time>
      </trkpt>
      <trkpt lat="45.03453" lon="5.24257">
        <ele>490</ele>
        <time>2010-11-11T13:30:06.000Z</time>
      </trkpt>
      <trkpt lat="45.03473" lon="5.24258">
        <ele>493.39999389648</ele>
        <time>2010-11-11T13:30:15.000Z</time>
      </trkpt>
      <trkpt lat="45.03491" lon="5.24255">
        <ele>497</ele>
        <time>2010-11-11T13:30:24.000Z</time>
      </trkpt>
      <trkpt lat="45.03492" lon="5.24255">
        <ele>497</ele>
        <time>2010-11-11T13:30:25.000Z</time>
      </trkpt>
      <trkpt lat="45.03497" lon="5.24256">
        <ele>498</ele>
        <time>2010-11-11T13:30:29.000Z</time>
      </trkpt>
      <trkpt lat="45.03524" lon="5.24272">
        <ele>503.20001220703</ele>
        <time>2010-11-11T13:30:39.000Z</time>
      </trkpt>
      <trkpt lat="45.03531" lon="5.24285">
        <ele>504</ele>
        <time>2010-11-11T13:30:44.000Z</time>
      </trkpt>
      <trkpt lat="45.03538" lon="5.24294">
        <ele>505</ele>
        <time>2010-11-11T13:30:48.000Z</time>
      </trkpt>
      <trkpt lat="45.0355" lon="5.2431">
        <ele>506.60000610352</ele>
        <time>2010-11-11T13:30:55.000Z</time>
      </trkpt>
      <trkpt lat="45.03558" lon="5.24328">
        <ele>507</ele>
        <time>2010-11-11T13:31:02.000Z</time>
      </trkpt>
      <trkpt lat="45.03577" lon="5.2432">
        <ele>512.59997558594</ele>
        <time>2010-11-11T13:31:09.000Z</time>
      </trkpt>
      <trkpt lat="45.03581" lon="5.24318">
        <ele>513.79998779297</ele>
        <time>2010-11-11T13:31:11.000Z</time>
      </trkpt>
      <trkpt lat="45.03595" lon="5.24328">
        <ele>515.20001220703</ele>
        <time>2010-11-11T13:31:22.000Z</time>
      </trkpt>
      <trkpt lat="45.03596" lon="5.24332">
        <ele>515</ele>
        <time>2010-11-11T13:31:24.000Z</time>
      </trkpt>
      <trkpt lat="45.03584" lon="5.24345">
        <ele>513</ele>
        <time>2010-11-11T13:31:31.000Z</time>
      </trkpt>
      <trkpt lat="45.03573" lon="5.24349">
        <ele>510.39999389648</ele>
        <time>2010-11-11T13:31:36.000Z</time>
      </trkpt>
      <trkpt lat="45.03561" lon="5.24349">
        <ele>507</ele>
        <time>2010-11-11T13:31:42.000Z</time>
      </trkpt>
      <trkpt lat="45.03558" lon="5.24358">
        <ele>506.20001220703</ele>
        <time>2010-11-11T13:31:49.000Z</time>
      </trkpt>
      <trkpt lat="45.03579" lon="5.24359">
        <ele>511.79998779297</ele>
        <time>2010-11-11T13:31:56.000Z</time>
      </trkpt>
      <trkpt lat="45.0359" lon="5.2436">
        <ele>513.79998779297</ele>
        <time>2010-11-11T13:32:01.000Z</time>
      </trkpt>
      <trkpt lat="45.03623" lon="5.24358">
        <ele>518.79998779297</ele>
        <time>2010-11-11T13:32:14.000Z</time>
      </trkpt>
      <trkpt lat="45.0365" lon="5.24368">
        <ele>522.20001220703</ele>
        <time>2010-11-11T13:32:25.000Z</time>
      </trkpt>
      <trkpt lat="45.03674" lon="5.24371">
        <ele>524.79998779297</ele>
        <time>2010-11-11T13:32:35.000Z</time>
      </trkpt>
      <trkpt lat="45.0368" lon="5.24375">
        <ele>524.79998779297</ele>
        <time>2010-11-11T13:32:38.000Z</time>
      </trkpt>
      <trkpt lat="45.03683" lon="5.24377">
        <ele>524.79998779297</ele>
        <time>2010-11-11T13:32:40.000Z</time>
      </trkpt>
      <trkpt lat="45.037" lon="5.24388">
        <ele>524.59997558594</ele>
        <time>2010-11-11T13:32:49.000Z</time>
      </trkpt>
      <trkpt lat="45.03712" lon="5.24389">
        <ele>524.79998779297</ele>
        <time>2010-11-11T13:32:59.000Z</time>
      </trkpt>
      <trkpt lat="45.03715" lon="5.24382">
        <ele>525.59997558594</ele>
        <time>2010-11-11T13:33:14.000Z</time>
      </trkpt>
      <trkpt lat="45.03719" lon="5.24367">
        <ele>527</ele>
        <time>2010-11-11T13:33:19.000Z</time>
      </trkpt>
      <trkpt lat="45.03732" lon="5.24344">
        <ele>530.20001220703</ele>
        <time>2010-11-11T13:33:25.000Z</time>
      </trkpt>
      <trkpt lat="45.03734" lon="5.24332">
        <ele>531.79998779297</ele>
        <time>2010-11-11T13:33:28.000Z</time>
      </trkpt>
      <trkpt lat="45.03723" lon="5.2431">
        <ele>535</ele>
        <time>2010-11-11T13:33:34.000Z</time>
      </trkpt>
      <trkpt lat="45.03711" lon="5.24275">
        <ele>539.79998779297</ele>
        <time>2010-11-11T13:33:44.000Z</time>
      </trkpt>
      <trkpt lat="45.03699" lon="5.24248">
        <ele>543.20001220703</ele>
        <time>2010-11-11T13:33:53.000Z</time>
      </trkpt>
      <trkpt lat="45.03685" lon="5.24228">
        <ele>546.40002441406</ele>
        <time>2010-11-11T13:34:02.000Z</time>
      </trkpt>
      <trkpt lat="45.03682" lon="5.24223">
        <ele>547</ele>
        <time>2010-11-11T13:34:04.000Z</time>
      </trkpt>
      <trkpt lat="45.03668" lon="5.24208">
        <ele>548.59997558594</ele>
        <time>2010-11-11T13:34:11.000Z</time>
      </trkpt>
      <trkpt lat="45.03649" lon="5.24201">
        <ele>547.20001220703</ele>
        <time>2010-11-11T13:34:18.000Z</time>
      </trkpt>
      <trkpt lat="45.03645" lon="5.24196">
        <ele>547.59997558594</ele>
        <time>2010-11-11T13:34:21.000Z</time>
      </trkpt>
      <trkpt lat="45.03669" lon="5.24201">
        <ele>550.40002441406</ele>
        <time>2010-11-11T13:34:31.000Z</time>
      </trkpt>
      <trkpt lat="45.03679" lon="5.24203">
        <ele>551.20001220703</ele>
        <time>2010-11-11T13:34:36.000Z</time>
      </trkpt>
      <trkpt lat="45.03706" lon="5.24202">
        <ele>555</ele>
        <time>2010-11-11T13:34:46.000Z</time>
      </trkpt>
      <trkpt lat="45.0372" lon="5.24201">
        <ele>557.40002441406</ele>
        <time>2010-11-11T13:34:54.000Z</time>
      </trkpt>
      <trkpt lat="45.03739" lon="5.24199">
        <ele>560.40002441406</ele>
        <time>2010-11-11T13:35:04.000Z</time>
      </trkpt>
      <trkpt lat="45.0375" lon="5.24202">
        <ele>561.20001220703</ele>
        <time>2010-11-11T13:35:08.000Z</time>
      </trkpt>
      <trkpt lat="45.0378" lon="5.24211">
        <ele>560.79998779297</ele>
        <time>2010-11-11T13:35:19.000Z</time>
      </trkpt>
      <trkpt lat="45.03801" lon="5.24216">
        <ele>560.59997558594</ele>
        <time>2010-11-11T13:35:27.000Z</time>
      </trkpt>
      <trkpt lat="45.0382" lon="5.24205">
        <ele>565</ele>
        <time>2010-11-11T13:35:36.000Z</time>
      </trkpt>
      <trkpt lat="45.03837" lon="5.2419">
        <ele>569.20001220703</ele>
        <time>2010-11-11T13:35:45.000Z</time>
      </trkpt>
      <trkpt lat="45.03861" lon="5.24171">
        <ele>572</ele>
        <time>2010-11-11T13:35:56.000Z</time>
      </trkpt>
      <trkpt lat="45.03869" lon="5.24164">
        <ele>573.40002441406</ele>
        <time>2010-11-11T13:36:00.000Z</time>
      </trkpt>
      <trkpt lat="45.0388" lon="5.24152">
        <ele>576.59997558594</ele>
        <time>2010-11-11T13:36:09.000Z</time>
      </trkpt>
      <trkpt lat="45.03895" lon="5.24139">
        <ele>580</ele>
        <time>2010-11-11T13:36:17.000Z</time>
      </trkpt>
      <trkpt lat="45.03907" lon="5.24133">
        <ele>581.40002441406</ele>
        <time>2010-11-11T13:36:24.000Z</time>
      </trkpt>
      <trkpt lat="45.03922" lon="5.24131">
        <ele>581.79998779297</ele>
        <time>2010-11-11T13:36:30.000Z</time>
      </trkpt>
      <trkpt lat="45.03954" lon="5.24136">
        <ele>580.79998779297</ele>
        <time>2010-11-11T13:36:39.000Z</time>
      </trkpt>
      <trkpt lat="45.0398" lon="5.24138">
        <ele>580.79998779297</ele>
        <time>2010-11-11T13:36:48.000Z</time>
      </trkpt>
      <trkpt lat="45.04004" lon="5.24141">
        <ele>580</ele>
        <time>2010-11-11T13:36:57.000Z</time>
      </trkpt>
      <trkpt lat="45.04024" lon="5.24147">
        <ele>578.40002441406</ele>
        <time>2010-11-11T13:37:05.000Z</time>
      </trkpt>
      <trkpt lat="45.04026" lon="5.24148">
        <ele>578.20001220703</ele>
        <time>2010-11-11T13:37:06.000Z</time>
      </trkpt>
      <trkpt lat="45.04045" lon="5.24148">
        <ele>578.20001220703</ele>
        <time>2010-11-11T13:37:14.000Z</time>
      </trkpt>
      <trkpt lat="45.04059" lon="5.24153">
        <ele>577.79998779297</ele>
        <time>2010-11-11T13:37:20.000Z</time>
      </trkpt>
      <trkpt lat="45.04089" lon="5.24156">
        <ele>577.20001220703</ele>
        <time>2010-11-11T13:37:30.000Z</time>
      </trkpt>
      <trkpt lat="45.04125" lon="5.24178">
        <ele>569</ele>
        <time>2010-11-11T13:37:41.000Z</time>
      </trkpt>
      <trkpt lat="45.04136" lon="5.24183">
        <ele>566.20001220703</ele>
        <time>2010-11-11T13:37:44.000Z</time>
      </trkpt>
      <trkpt lat="45.04153" lon="5.24164">
        <ele>569.40002441406</ele>
        <time>2010-11-11T13:37:51.000Z</time>
      </trkpt>
      <trkpt lat="45.04163" lon="5.24112">
        <ele>567.40002441406</ele>
        <time>2010-11-11T13:38:02.000Z</time>
      </trkpt>
      <trkpt lat="45.04165" lon="5.241">
        <ele>566.79998779297</ele>
        <time>2010-11-11T13:38:04.000Z</time>
      </trkpt>
      <trkpt lat="45.04168" lon="5.24049">
        <ele>565.79998779297</ele>
        <time>2010-11-11T13:38:13.000Z</time>
      </trkpt>
      <trkpt lat="45.04178" lon="5.24018">
        <ele>562.79998779297</ele>
        <time>2010-11-11T13:38:20.000Z</time>
      </trkpt>
      <trkpt lat="45.04188" lon="5.23989">
        <ele>562.20001220703</ele>
        <time>2010-11-11T13:38:29.000Z</time>
      </trkpt>
      <trkpt lat="45.04208" lon="5.23966">
        <ele>560.59997558594</ele>
        <time>2010-11-11T13:38:36.000Z</time>
      </trkpt>
      <trkpt lat="45.04229" lon="5.23945">
        <ele>556.79998779297</ele>
        <time>2010-11-11T13:38:43.000Z</time>
      </trkpt>
      <trkpt lat="45.04261" lon="5.23927">
        <ele>547.79998779297</ele>
        <time>2010-11-11T13:38:53.000Z</time>
      </trkpt>
      <trkpt lat="45.04289" lon="5.23911">
        <ele>540</ele>
        <time>2010-11-11T13:39:02.000Z</time>
      </trkpt>
      <trkpt lat="45.04321" lon="5.23892">
        <ele>532.40002441406</ele>
        <time>2010-11-11T13:39:12.000Z</time>
      </trkpt>
      <trkpt lat="45.04339" lon="5.23868">
        <ele>531.79998779297</ele>
        <time>2010-11-11T13:39:20.000Z</time>
      </trkpt>
      <trkpt lat="45.04371" lon="5.23857">
        <ele>523.40002441406</ele>
        <time>2010-11-11T13:39:29.000Z</time>
      </trkpt>
      <trkpt lat="45.0439" lon="5.23847">
        <ele>518.79998779297</ele>
        <time>2010-11-11T13:39:36.000Z</time>
      </trkpt>
      <trkpt lat="45.04426" lon="5.23838">
        <ele>511.39999389648</ele>
        <time>2010-11-11T13:39:46.000Z</time>
      </trkpt>
      <trkpt lat="45.04448" lon="5.23844">
        <ele>511.20001220703</ele>
        <time>2010-11-11T13:39:52.000Z</time>
      </trkpt>
      <trkpt lat="45.0446" lon="5.23852">
        <ele>509.79998779297</ele>
        <time>2010-11-11T13:39:56.000Z</time>
      </trkpt>
      <trkpt lat="45.04474" lon="5.23857">
        <ele>508.79998779297</ele>
        <time>2010-11-11T13:40:02.000Z</time>
      </trkpt>
      <trkpt lat="45.0448" lon="5.2386">
        <ele>508.20001220703</ele>
        <time>2010-11-11T13:40:04.000Z</time>
      </trkpt>
      <trkpt lat="45.04511" lon="5.23869">
        <ele>505.39999389648</ele>
        <time>2010-11-11T13:40:14.000Z</time>
      </trkpt>
      <trkpt lat="45.04541" lon="5.23873">
        <ele>502.79998779297</ele>
        <time>2010-11-11T13:40:23.000Z</time>
      </trkpt>
      <trkpt lat="45.04568" lon="5.2385">
        <ele>508</ele>
        <time>2010-11-11T13:40:33.000Z</time>
      </trkpt>
      <trkpt lat="45.04593" lon="5.23849">
        <ele>507</ele>
        <time>2010-11-11T13:40:41.000Z</time>
      </trkpt>
      <trkpt lat="45.0462" lon="5.23849">
        <ele>504.60000610352</ele>
        <time>2010-11-11T13:40:49.000Z</time>
      </trkpt>
      <trkpt lat="45.04643" lon="5.23852">
        <ele>502</ele>
        <time>2010-11-11T13:40:56.000Z</time>
      </trkpt>
      <trkpt lat="45.04658" lon="5.23852">
        <ele>500.60000610352</ele>
        <time>2010-11-11T13:41:01.000Z</time>
      </trkpt>
      <trkpt lat="45.04694" lon="5.23848">
        <ele>498.79998779297</ele>
        <time>2010-11-11T13:41:11.000Z</time>
      </trkpt>
      <trkpt lat="45.04696" lon="5.23847">
        <ele>498.79998779297</ele>
        <time>2010-11-11T13:41:12.000Z</time>
      </trkpt>
      <trkpt lat="45.04702" lon="5.23845">
        <ele>498.60000610352</ele>
        <time>2010-11-11T13:41:14.000Z</time>
      </trkpt>
      <trkpt lat="45.04727" lon="5.23838">
        <ele>498.79998779297</ele>
        <time>2010-11-11T13:41:21.000Z</time>
      </trkpt>
      <trkpt lat="45.04738" lon="5.23837">
        <ele>498</ele>
        <time>2010-11-11T13:41:24.000Z</time>
      </trkpt>
      <trkpt lat="45.04749" lon="5.23836">
        <ele>497.20001220703</ele>
        <time>2010-11-11T13:41:38.000Z</time>
      </trkpt>
      <trkpt lat="45.0475" lon="5.23824">
        <ele>500.79998779297</ele>
        <time>2010-11-11T13:41:48.000Z</time>
      </trkpt>
      <trkpt lat="45.04758" lon="5.23807">
        <ele>505.79998779297</ele>
        <time>2010-11-11T13:41:54.000Z</time>
      </trkpt>
      <trkpt lat="45.04777" lon="5.23799">
        <ele>507.39999389648</ele>
        <time>2010-11-11T13:42:01.000Z</time>
      </trkpt>
      <trkpt lat="45.04792" lon="5.23785">
        <ele>510.79998779297</ele>
        <time>2010-11-11T13:42:09.000Z</time>
      </trkpt>
      <trkpt lat="45.04794" lon="5.23784">
        <ele>511</ele>
        <time>2010-11-11T13:42:10.000Z</time>
      </trkpt>
      <trkpt lat="45.04803" lon="5.23776">
        <ele>513</ele>
        <time>2010-11-11T13:42:16.000Z</time>
      </trkpt>
      <trkpt lat="45.04808" lon="5.23771">
        <ele>514.20001220703</ele>
        <time>2010-11-11T13:42:20.000Z</time>
      </trkpt>
      <trkpt lat="45.04814" lon="5.23765">
        <ele>515.79998779297</ele>
        <time>2010-11-11T13:42:24.000Z</time>
      </trkpt>
      <trkpt lat="45.04835" lon="5.23753">
        <ele>518.20001220703</ele>
        <time>2010-11-11T13:42:35.000Z</time>
      </trkpt>
      <trkpt lat="45.04844" lon="5.2375">
        <ele>519.79998779297</ele>
        <time>2010-11-11T13:42:41.000Z</time>
      </trkpt>
      <trkpt lat="45.04852" lon="5.23739">
        <ele>523.40002441406</ele>
        <time>2010-11-11T13:42:57.000Z</time>
      </trkpt>
      <trkpt lat="45.04858" lon="5.23726">
        <ele>527.20001220703</ele>
        <time>2010-11-11T13:43:16.000Z</time>
      </trkpt>
      <trkpt lat="45.04863" lon="5.23714">
        <ele>530.79998779297</ele>
        <time>2010-11-11T13:43:28.000Z</time>
      </trkpt>
      <trkpt lat="45.04867" lon="5.23701">
        <ele>534.20001220703</ele>
        <time>2010-11-11T13:43:39.000Z</time>
      </trkpt>
      <trkpt lat="45.0488" lon="5.23686">
        <ele>538</ele>
        <time>2010-11-11T13:43:50.000Z</time>
      </trkpt>
      <trkpt lat="45.049" lon="5.23663">
        <ele>542.79998779297</ele>
        <time>2010-11-11T13:44:02.000Z</time>
      </trkpt>
      <trkpt lat="45.04908" lon="5.23659">
        <ele>543</ele>
        <time>2010-11-11T13:44:04.000Z</time>
      </trkpt>
      <trkpt lat="45.04935" lon="5.23648">
        <ele>541.20001220703</ele>
        <time>2010-11-11T13:44:12.000Z</time>
      </trkpt>
      <trkpt lat="45.04957" lon="5.23637">
        <ele>538.79998779297</ele>
        <time>2010-11-11T13:44:20.000Z</time>
      </trkpt>
      <trkpt lat="45.04966" lon="5.23632">
        <ele>537.40002441406</ele>
        <time>2010-11-11T13:44:25.000Z</time>
      </trkpt>
      <trkpt lat="45.05004" lon="5.23625">
        <ele>531.40002441406</ele>
        <time>2010-11-11T13:44:35.000Z</time>
      </trkpt>
      <trkpt lat="45.05022" lon="5.23614">
        <ele>528</ele>
        <time>2010-11-11T13:44:42.000Z</time>
      </trkpt>
      <trkpt lat="45.0504" lon="5.2359">
        <ele>521.59997558594</ele>
        <time>2010-11-11T13:44:51.000Z</time>
      </trkpt>
      <trkpt lat="45.05043" lon="5.23586">
        <ele>520.40002441406</ele>
        <time>2010-11-11T13:44:52.000Z</time>
      </trkpt>
      <trkpt lat="45.05058" lon="5.2357">
        <ele>513.79998779297</ele>
        <time>2010-11-11T13:44:57.000Z</time>
      </trkpt>
      <trkpt lat="45.05068" lon="5.2355">
        <ele>506.60000610352</ele>
        <time>2010-11-11T13:45:03.000Z</time>
      </trkpt>
      <trkpt lat="45.05085" lon="5.23528">
        <ele>495.60000610352</ele>
        <time>2010-11-11T13:45:12.000Z</time>
      </trkpt>
      <trkpt lat="45.0509" lon="5.23522">
        <ele>493.20001220703</ele>
        <time>2010-11-11T13:45:14.000Z</time>
      </trkpt>
      <trkpt lat="45.05094" lon="5.23515">
        <ele>490.39999389648</ele>
        <time>2010-11-11T13:45:16.000Z</time>
      </trkpt>
      <trkpt lat="45.0509" lon="5.23483">
        <ele>482.79998779297</ele>
        <time>2010-11-11T13:45:23.000Z</time>
      </trkpt>
      <trkpt lat="45.05076" lon="5.23466">
        <ele>482.79998779297</ele>
        <time>2010-11-11T13:45:30.000Z</time>
      </trkpt>
      <trkpt lat="45.05072" lon="5.23459">
        <ele>483</ele>
        <time>2010-11-11T13:45:32.000Z</time>
      </trkpt>
      <trkpt lat="45.05054" lon="5.23437">
        <ele>486.20001220703</ele>
        <time>2010-11-11T13:45:42.000Z</time>
      </trkpt>
      <trkpt lat="45.05036" lon="5.2341">
        <ele>488.79998779297</ele>
        <time>2010-11-11T13:45:54.000Z</time>
      </trkpt>
      <trkpt lat="45.05023" lon="5.23392">
        <ele>491.60000610352</ele>
        <time>2010-11-11T13:46:03.000Z</time>
      </trkpt>
      <trkpt lat="45.05017" lon="5.23362">
        <ele>488.39999389648</ele>
        <time>2010-11-11T13:46:14.000Z</time>
      </trkpt>
      <trkpt lat="45.05011" lon="5.23351">
        <ele>488.39999389648</ele>
        <time>2010-11-11T13:46:19.000Z</time>
      </trkpt>
      <trkpt lat="45.04994" lon="5.23334">
        <ele>492</ele>
        <time>2010-11-11T13:46:30.000Z</time>
      </trkpt>
      <trkpt lat="45.04978" lon="5.23315">
        <ele>492</ele>
        <time>2010-11-11T13:46:42.000Z</time>
      </trkpt>
      <trkpt lat="45.04959" lon="5.23306">
        <ele>496</ele>
        <time>2010-11-11T13:46:51.000Z</time>
      </trkpt>
      <trkpt lat="45.04949" lon="5.23302">
        <ele>498</ele>
        <time>2010-11-11T13:46:56.000Z</time>
      </trkpt>
      <trkpt lat="45.04933" lon="5.23292">
        <ele>501</ele>
        <time>2010-11-11T13:47:05.000Z</time>
      </trkpt>
      <trkpt lat="45.04914" lon="5.23286">
        <ele>505.79998779297</ele>
        <time>2010-11-11T13:47:16.000Z</time>
      </trkpt>
      <trkpt lat="45.04902" lon="5.23279">
        <ele>507.60000610352</ele>
        <time>2010-11-11T13:47:23.000Z</time>
      </trkpt>
      <trkpt lat="45.04899" lon="5.23274">
        <ele>507.39999389648</ele>
        <time>2010-11-11T13:47:26.000Z</time>
      </trkpt>
      <trkpt lat="45.04886" lon="5.23253">
        <ele>507.20001220703</ele>
        <time>2010-11-11T13:47:36.000Z</time>
      </trkpt>
      <trkpt lat="45.0488" lon="5.23244">
        <ele>507.39999389648</ele>
        <time>2010-11-11T13:47:42.000Z</time>
      </trkpt>
      <trkpt lat="45.04874" lon="5.23237">
        <ele>507.79998779297</ele>
        <time>2010-11-11T13:47:47.000Z</time>
      </trkpt>
      <trkpt lat="45.04865" lon="5.23228">
        <ele>509</ele>
        <time>2010-11-11T13:47:52.000Z</time>
      </trkpt>
      <trkpt lat="45.04856" lon="5.2322">
        <ele>511</ele>
        <time>2010-11-11T13:47:57.000Z</time>
      </trkpt>
      <trkpt lat="45.04851" lon="5.23214">
        <ele>511.79998779297</ele>
        <time>2010-11-11T13:48:00.000Z</time>
      </trkpt>
      <trkpt lat="45.04844" lon="5.23205">
        <ele>512.79998779297</ele>
        <time>2010-11-11T13:48:05.000Z</time>
      </trkpt>
      <trkpt lat="45.04834" lon="5.23199">
        <ele>515.40002441406</ele>
        <time>2010-11-11T13:48:12.000Z</time>
      </trkpt>
      <trkpt lat="45.04823" lon="5.23189">
        <ele>518</ele>
        <time>2010-11-11T13:48:18.000Z</time>
      </trkpt>
      <trkpt lat="45.04819" lon="5.23187">
        <ele>519</ele>
        <time>2010-11-11T13:48:20.000Z</time>
      </trkpt>
      <trkpt lat="45.04802" lon="5.23174">
        <ele>523.40002441406</ele>
        <time>2010-11-11T13:48:30.000Z</time>
      </trkpt>
      <trkpt lat="45.04789" lon="5.23165">
        <ele>527</ele>
        <time>2010-11-11T13:48:40.000Z</time>
      </trkpt>
      <trkpt lat="45.04774" lon="5.23157">
        <ele>530.40002441406</ele>
        <time>2010-11-11T13:48:52.000Z</time>
      </trkpt>
      <trkpt lat="45.04757" lon="5.23139">
        <ele>531.79998779297</ele>
        <time>2010-11-11T13:49:01.000Z</time>
      </trkpt>
      <trkpt lat="45.0475" lon="5.23133">
        <ele>532.59997558594</ele>
        <time>2010-11-11T13:49:06.000Z</time>
      </trkpt>
      <trkpt lat="45.04734" lon="5.23117">
        <ele>533.40002441406</ele>
        <time>2010-11-11T13:49:16.000Z</time>
      </trkpt>
      <trkpt lat="45.04728" lon="5.23113">
        <ele>534.40002441406</ele>
        <time>2010-11-11T13:49:20.000Z</time>
      </trkpt>
      <trkpt lat="45.04713" lon="5.23102">
        <ele>536.59997558594</ele>
        <time>2010-11-11T13:49:30.000Z</time>
      </trkpt>
      <trkpt lat="45.04702" lon="5.23094">
        <ele>538</ele>
        <time>2010-11-11T13:49:36.000Z</time>
      </trkpt>
      <trkpt lat="45.04699" lon="5.23098">
        <ele>540.20001220703</ele>
        <time>2010-11-11T13:49:40.000Z</time>
      </trkpt>
      <trkpt lat="45.04705" lon="5.23113">
        <ele>542.79998779297</ele>
        <time>2010-11-11T13:49:48.000Z</time>
      </trkpt>
      <trkpt lat="45.04715" lon="5.23135">
        <ele>546</ele>
        <time>2010-11-11T13:49:57.000Z</time>
      </trkpt>
      <trkpt lat="45.04718" lon="5.23144">
        <ele>547.59997558594</ele>
        <time>2010-11-11T13:50:02.000Z</time>
      </trkpt>
      <trkpt lat="45.04717" lon="5.23152">
        <ele>550.20001220703</ele>
        <time>2010-11-11T13:50:05.000Z</time>
      </trkpt>
      <trkpt lat="45.04725" lon="5.23181">
        <ele>554.40002441406</ele>
        <time>2010-11-11T13:50:15.000Z</time>
      </trkpt>
      <trkpt lat="45.0473" lon="5.23191">
        <ele>554</ele>
        <time>2010-11-11T13:50:20.000Z</time>
      </trkpt>
      <trkpt lat="45.04733" lon="5.23199">
        <ele>554.40002441406</ele>
        <time>2010-11-11T13:50:24.000Z</time>
      </trkpt>
      <trkpt lat="45.04736" lon="5.23208">
        <ele>554.59997558594</ele>
        <time>2010-11-11T13:50:28.000Z</time>
      </trkpt>
      <trkpt lat="45.04741" lon="5.23227">
        <ele>556.20001220703</ele>
        <time>2010-11-11T13:50:36.000Z</time>
      </trkpt>
      <trkpt lat="45.04744" lon="5.23244">
        <ele>558.20001220703</ele>
        <time>2010-11-11T13:50:44.000Z</time>
      </trkpt>
      <trkpt lat="45.04744" lon="5.23265">
        <ele>560.40002441406</ele>
        <time>2010-11-11T13:50:53.000Z</time>
      </trkpt>
      <trkpt lat="45.04743" lon="5.23271">
        <ele>561.40002441406</ele>
        <time>2010-11-11T13:50:56.000Z</time>
      </trkpt>
      <trkpt lat="45.04735" lon="5.23291">
        <ele>565.59997558594</ele>
        <time>2010-11-11T13:51:06.000Z</time>
      </trkpt>
      <trkpt lat="45.04735" lon="5.23319">
        <ele>568.20001220703</ele>
        <time>2010-11-11T13:51:19.000Z</time>
      </trkpt>
      <trkpt lat="45.04735" lon="5.23323">
        <ele>568.59997558594</ele>
        <time>2010-11-11T13:51:20.000Z</time>
      </trkpt>
      <trkpt lat="45.04736" lon="5.23335">
        <ele>569.20001220703</ele>
        <time>2010-11-11T13:51:24.000Z</time>
      </trkpt>
      <trkpt lat="45.04736" lon="5.23351">
        <ele>572</ele>
        <time>2010-11-11T13:51:30.000Z</time>
      </trkpt>
      <trkpt lat="45.04738" lon="5.23359">
        <ele>572.40002441406</ele>
        <time>2010-11-11T13:51:32.000Z</time>
      </trkpt>
      <trkpt lat="45.04742" lon="5.23375">
        <ele>573.79998779297</ele>
        <time>2010-11-11T13:51:38.000Z</time>
      </trkpt>
      <trkpt lat="45.04743" lon="5.23381">
        <ele>574.40002441406</ele>
        <time>2010-11-11T13:51:42.000Z</time>
      </trkpt>
      <trkpt lat="45.04744" lon="5.23384">
        <ele>574.59997558594</ele>
        <time>2010-11-11T13:51:44.000Z</time>
      </trkpt>
      <trkpt lat="45.04745" lon="5.23399">
        <ele>576.40002441406</ele>
        <time>2010-11-11T13:51:50.000Z</time>
      </trkpt>
      <trkpt lat="45.04746" lon="5.23404">
        <ele>577</ele>
        <time>2010-11-11T13:51:52.000Z</time>
      </trkpt>
      <trkpt lat="45.04746" lon="5.23415">
        <ele>579</ele>
        <time>2010-11-11T13:51:56.000Z</time>
      </trkpt>
      <trkpt lat="45.04751" lon="5.23444">
        <ele>581.40002441406</ele>
        <time>2010-11-11T13:52:06.000Z</time>
      </trkpt>
      <trkpt lat="45.04749" lon="5.23449">
        <ele>582.40002441406</ele>
        <time>2010-11-11T13:52:09.000Z</time>
      </trkpt>
      <trkpt lat="45.04733" lon="5.23429">
        <ele>584.79998779297</ele>
        <time>2010-11-11T13:52:21.000Z</time>
      </trkpt>
      <trkpt lat="45.0473" lon="5.23422">
        <ele>585</ele>
        <time>2010-11-11T13:52:52.000Z</time>
      </trkpt>
      <trkpt lat="45.04722" lon="5.23433">
        <ele>588.79998779297</ele>
        <time>2010-11-11T13:53:34.000Z</time>
      </trkpt>
      <trkpt lat="45.04731" lon="5.23422">
        <ele>584.59997558594</ele>
        <time>2010-11-11T13:59:12.000Z</time>
      </trkpt>
      <trkpt lat="45.04732" lon="5.23424">
        <ele>584.59997558594</ele>
        <time>2010-11-11T14:01:08.000Z</time>
      </trkpt>
      <trkpt lat="45.04722" lon="5.2341">
        <ele>585.79998779297</ele>
        <time>2010-11-11T14:02:16.000Z</time>
      </trkpt>
      <trkpt lat="45.04714" lon="5.23395">
        <ele>586.59997558594</ele>
        <time>2010-11-11T14:02:23.000Z</time>
      </trkpt>
      <trkpt lat="45.04711" lon="5.23391">
        <ele>587</ele>
        <time>2010-11-11T14:02:25.000Z</time>
      </trkpt>
      <trkpt lat="45.04703" lon="5.2338">
        <ele>588</ele>
        <time>2010-11-11T14:02:31.000Z</time>
      </trkpt>
      <trkpt lat="45.04681" lon="5.23359">
        <ele>592.79998779297</ele>
        <time>2010-11-11T14:02:44.000Z</time>
      </trkpt>
      <trkpt lat="45.04676" lon="5.23352">
        <ele>593.79998779297</ele>
        <time>2010-11-11T14:02:47.000Z</time>
      </trkpt>
      <trkpt lat="45.04669" lon="5.23341">
        <ele>595.20001220703</ele>
        <time>2010-11-11T14:02:52.000Z</time>
      </trkpt>
      <trkpt lat="45.04662" lon="5.23333">
        <ele>596.40002441406</ele>
        <time>2010-11-11T14:02:56.000Z</time>
      </trkpt>
      <trkpt lat="45.0464" lon="5.23301">
        <ele>599.79998779297</ele>
        <time>2010-11-11T14:03:09.000Z</time>
      </trkpt>
      <trkpt lat="45.04628" lon="5.23281">
        <ele>601.20001220703</ele>
        <time>2010-11-11T14:03:18.000Z</time>
      </trkpt>
      <trkpt lat="45.04618" lon="5.23266">
        <ele>602.59997558594</ele>
        <time>2010-11-11T14:03:26.000Z</time>
      </trkpt>
      <trkpt lat="45.04607" lon="5.23255">
        <ele>604.40002441406</ele>
        <time>2010-11-11T14:03:32.000Z</time>
      </trkpt>
      <trkpt lat="45.04583" lon="5.23232">
        <ele>607.79998779297</ele>
        <time>2010-11-11T14:03:45.000Z</time>
      </trkpt>
      <trkpt lat="45.04566" lon="5.23219">
        <ele>611.79998779297</ele>
        <time>2010-11-11T14:03:55.000Z</time>
      </trkpt>
      <trkpt lat="45.04548" lon="5.23206">
        <ele>616.20001220703</ele>
        <time>2010-11-11T14:04:06.000Z</time>
      </trkpt>
      <trkpt lat="45.04546" lon="5.23205">
        <ele>616.59997558594</ele>
        <time>2010-11-11T14:04:07.000Z</time>
      </trkpt>
      <trkpt lat="45.04517" lon="5.23198">
        <ele>626</ele>
        <time>2010-11-11T14:04:21.000Z</time>
      </trkpt>
      <trkpt lat="45.04498" lon="5.2318">
        <ele>629.79998779297</ele>
        <time>2010-11-11T14:04:31.000Z</time>
      </trkpt>
      <trkpt lat="45.04479" lon="5.23162">
        <ele>633.40002441406</ele>
        <time>2010-11-11T14:04:40.000Z</time>
      </trkpt>
      <trkpt lat="45.04463" lon="5.23124">
        <ele>631.40002441406</ele>
        <time>2010-11-11T14:04:54.000Z</time>
      </trkpt>
      <trkpt lat="45.04458" lon="5.23116">
        <ele>631.79998779297</ele>
        <time>2010-11-11T14:04:58.000Z</time>
      </trkpt>
      <trkpt lat="45.04444" lon="5.23103">
        <ele>634.20001220703</ele>
        <time>2010-11-11T14:05:09.000Z</time>
      </trkpt>
      <trkpt lat="45.04432" lon="5.23103">
        <ele>638.79998779297</ele>
        <time>2010-11-11T14:05:29.000Z</time>
      </trkpt>
      <trkpt lat="45.04418" lon="5.23109">
        <ele>645.40002441406</ele>
        <time>2010-11-11T14:05:48.000Z</time>
      </trkpt>
      <trkpt lat="45.04408" lon="5.23113">
        <ele>649.59997558594</ele>
        <time>2010-11-11T14:06:04.000Z</time>
      </trkpt>
      <trkpt lat="45.04402" lon="5.23113">
        <ele>651.59997558594</ele>
        <time>2010-11-11T14:06:11.000Z</time>
      </trkpt>
      <trkpt lat="45.04386" lon="5.23122">
        <ele>658.79998779297</ele>
        <time>2010-11-11T14:06:24.000Z</time>
      </trkpt>
      <trkpt lat="45.04373" lon="5.23126">
        <ele>663.79998779297</ele>
        <time>2010-11-11T14:06:41.000Z</time>
      </trkpt>
      <trkpt lat="45.04363" lon="5.23134">
        <ele>669</ele>
        <time>2010-11-11T14:06:58.000Z</time>
      </trkpt>
      <trkpt lat="45.04355" lon="5.23136">
        <ele>672</ele>
        <time>2010-11-11T14:07:11.000Z</time>
      </trkpt>
      <trkpt lat="45.04345" lon="5.23143">
        <ele>677.40002441406</ele>
        <time>2010-11-11T14:07:28.000Z</time>
      </trkpt>
      <trkpt lat="45.04336" lon="5.23151">
        <ele>682.59997558594</ele>
        <time>2010-11-11T14:07:44.000Z</time>
      </trkpt>
      <trkpt lat="45.04326" lon="5.23165">
        <ele>688.79998779297</ele>
        <time>2010-11-11T14:08:01.000Z</time>
      </trkpt>
      <trkpt lat="45.04316" lon="5.23173">
        <ele>692.59997558594</ele>
        <time>2010-11-11T14:08:16.000Z</time>
      </trkpt>
      <trkpt lat="45.0431" lon="5.23186">
        <ele>696</ele>
        <time>2010-11-11T14:08:29.000Z</time>
      </trkpt>
      <trkpt lat="45.04305" lon="5.23203">
        <ele>700.20001220703</ele>
        <time>2010-11-11T14:08:45.000Z</time>
      </trkpt>
      <trkpt lat="45.04297" lon="5.23215">
        <ele>704.40002441406</ele>
        <time>2010-11-11T14:08:59.000Z</time>
      </trkpt>
      <trkpt lat="45.04286" lon="5.23224">
        <ele>708.79998779297</ele>
        <time>2010-11-11T14:09:15.000Z</time>
      </trkpt>
      <trkpt lat="45.04273" lon="5.23231">
        <ele>713.40002441406</ele>
        <time>2010-11-11T14:09:33.000Z</time>
      </trkpt>
      <trkpt lat="45.04267" lon="5.23239">
        <ele>717</ele>
        <time>2010-11-11T14:09:50.000Z</time>
      </trkpt>
      <trkpt lat="45.04259" lon="5.2325">
        <ele>721.40002441406</ele>
        <time>2010-11-11T14:10:04.000Z</time>
      </trkpt>
      <trkpt lat="45.04256" lon="5.23256">
        <ele>722</ele>
        <time>2010-11-11T14:10:20.000Z</time>
      </trkpt>
      <trkpt lat="45.04255" lon="5.23256">
        <ele>722</ele>
        <time>2010-11-11T14:10:21.000Z</time>
      </trkpt>
      <trkpt lat="45.04253" lon="5.23252">
        <ele>722.79998779297</ele>
        <time>2010-11-11T14:10:24.000Z</time>
      </trkpt>
      <trkpt lat="45.04245" lon="5.2324">
        <ele>721.59997558594</ele>
        <time>2010-11-11T14:10:30.000Z</time>
      </trkpt>
      <trkpt lat="45.0424" lon="5.23236">
        <ele>721</ele>
        <time>2010-11-11T14:10:34.000Z</time>
      </trkpt>
      <trkpt lat="45.04233" lon="5.23237">
        <ele>721.20001220703</ele>
        <time>2010-11-11T14:10:38.000Z</time>
      </trkpt>
      <trkpt lat="45.04226" lon="5.23245">
        <ele>723.20001220703</ele>
        <time>2010-11-11T14:10:46.000Z</time>
      </trkpt>
      <trkpt lat="45.04218" lon="5.2325">
        <ele>724.20001220703</ele>
        <time>2010-11-11T14:10:54.000Z</time>
      </trkpt>
      <trkpt lat="45.04207" lon="5.2324">
        <ele>722.20001220703</ele>
        <time>2010-11-11T14:11:03.000Z</time>
      </trkpt>
      <trkpt lat="45.04199" lon="5.23228">
        <ele>719.40002441406</ele>
        <time>2010-11-11T14:11:15.000Z</time>
      </trkpt>
      <trkpt lat="45.04199" lon="5.23227">
        <ele>719.20001220703</ele>
        <time>2010-11-11T14:11:31.000Z</time>
      </trkpt>
      <trkpt lat="45.04199" lon="5.23227">
        <ele>719.20001220703</ele>
        <time>2010-11-11T14:11:34.000Z</time>
      </trkpt>
      <trkpt lat="45.04211" lon="5.23239">
        <ele>721.79998779297</ele>
        <time>2010-11-11T14:11:44.000Z</time>
      </trkpt>
      <trkpt lat="45.04219" lon="5.23249">
        <ele>724</ele>
        <time>2010-11-11T14:11:52.000Z</time>
      </trkpt>
      <trkpt lat="45.04223" lon="5.23244">
        <ele>722.79998779297</ele>
        <time>2010-11-11T14:12:09.000Z</time>
      </trkpt>
      <trkpt lat="45.04232" lon="5.23238">
        <ele>721.40002441406</ele>
        <time>2010-11-11T14:12:15.000Z</time>
      </trkpt>
      <trkpt lat="45.04244" lon="5.23245">
        <ele>722.79998779297</ele>
        <time>2010-11-11T14:12:23.000Z</time>
      </trkpt>
      <trkpt lat="45.04246" lon="5.23253">
        <ele>723.79998779297</ele>
        <time>2010-11-11T14:12:26.000Z</time>
      </trkpt>
      <trkpt lat="45.04252" lon="5.23262">
        <ele>722.59997558594</ele>
        <time>2010-11-11T14:12:37.000Z</time>
      </trkpt>
      <trkpt lat="45.04262" lon="5.23275">
        <ele>719.40002441406</ele>
        <time>2010-11-11T14:12:47.000Z</time>
      </trkpt>
      <trkpt lat="45.04269" lon="5.23282">
        <ele>717.40002441406</ele>
        <time>2010-11-11T14:12:52.000Z</time>
      </trkpt>
      <trkpt lat="45.04271" lon="5.23286">
        <ele>716.79998779297</ele>
        <time>2010-11-11T14:12:55.000Z</time>
      </trkpt>
      <trkpt lat="45.04273" lon="5.23289">
        <ele>716.20001220703</ele>
        <time>2010-11-11T14:12:57.000Z</time>
      </trkpt>
      <trkpt lat="45.04275" lon="5.23293">
        <ele>715.59997558594</ele>
        <time>2010-11-11T14:13:00.000Z</time>
      </trkpt>
      <trkpt lat="45.04278" lon="5.23296">
        <ele>715.20001220703</ele>
        <time>2010-11-11T14:13:02.000Z</time>
      </trkpt>
      <trkpt lat="45.04283" lon="5.23303">
        <ele>714</ele>
        <time>2010-11-11T14:13:07.000Z</time>
      </trkpt>
      <trkpt lat="45.04286" lon="5.23305">
        <ele>713.40002441406</ele>
        <time>2010-11-11T14:13:09.000Z</time>
      </trkpt>
      <trkpt lat="45.04293" lon="5.23314">
        <ele>712.20001220703</ele>
        <time>2010-11-11T14:13:14.000Z</time>
      </trkpt>
      <trkpt lat="45.043" lon="5.23319">
        <ele>711.20001220703</ele>
        <time>2010-11-11T14:13:18.000Z</time>
      </trkpt>
      <trkpt lat="45.04308" lon="5.23326">
        <ele>710.20001220703</ele>
        <time>2010-11-11T14:13:23.000Z</time>
      </trkpt>
      <trkpt lat="45.0431" lon="5.23326">
        <ele>709.79998779297</ele>
        <time>2010-11-11T14:13:25.000Z</time>
      </trkpt>
      <trkpt lat="45.04316" lon="5.23332">
        <ele>709.20001220703</ele>
        <time>2010-11-11T14:13:31.000Z</time>
      </trkpt>
      <trkpt lat="45.04324" lon="5.23338">
        <ele>707.59997558594</ele>
        <time>2010-11-11T14:13:36.000Z</time>
      </trkpt>
      <trkpt lat="45.04345" lon="5.23359">
        <ele>701.59997558594</ele>
        <time>2010-11-11T14:13:47.000Z</time>
      </trkpt>
      <trkpt lat="45.04358" lon="5.23374">
        <ele>697.59997558594</ele>
        <time>2010-11-11T14:13:53.000Z</time>
      </trkpt>
      <trkpt lat="45.04361" lon="5.23377">
        <ele>696.79998779297</ele>
        <time>2010-11-11T14:13:55.000Z</time>
      </trkpt>
      <trkpt lat="45.04367" lon="5.23382">
        <ele>695.59997558594</ele>
        <time>2010-11-11T14:13:59.000Z</time>
      </trkpt>
      <trkpt lat="45.04376" lon="5.23396">
        <ele>693.40002441406</ele>
        <time>2010-11-11T14:14:05.000Z</time>
      </trkpt>
      <trkpt lat="45.0438" lon="5.23399">
        <ele>692.79998779297</ele>
        <time>2010-11-11T14:14:07.000Z</time>
      </trkpt>
      <trkpt lat="45.04396" lon="5.23416">
        <ele>690.59997558594</ele>
        <time>2010-11-11T14:14:17.000Z</time>
      </trkpt>
      <trkpt lat="45.04405" lon="5.23424">
        <ele>687</ele>
        <time>2010-11-11T14:14:22.000Z</time>
      </trkpt>
      <trkpt lat="45.04427" lon="5.23436">
        <ele>679</ele>
        <time>2010-11-11T14:14:33.000Z</time>
      </trkpt>
      <trkpt lat="45.04436" lon="5.23441">
        <ele>674.79998779297</ele>
        <time>2010-11-11T14:14:38.000Z</time>
      </trkpt>
      <trkpt lat="45.04442" lon="5.23445">
        <ele>671.59997558594</ele>
        <time>2010-11-11T14:14:43.000Z</time>
      </trkpt>
      <trkpt lat="45.04458" lon="5.23452">
        <ele>665.40002441406</ele>
        <time>2010-11-11T14:14:53.000Z</time>
      </trkpt>
      <trkpt lat="45.04474" lon="5.23451">
        <ele>661</ele>
        <time>2010-11-11T14:15:02.000Z</time>
      </trkpt>
      <trkpt lat="45.04481" lon="5.2345">
        <ele>659</ele>
        <time>2010-11-11T14:15:05.000Z</time>
      </trkpt>
      <trkpt lat="45.04489" lon="5.2345">
        <ele>656.59997558594</ele>
        <time>2010-11-11T14:15:09.000Z</time>
      </trkpt>
      <trkpt lat="45.04513" lon="5.23443">
        <ele>650.40002441406</ele>
        <time>2010-11-11T14:15:20.000Z</time>
      </trkpt>
      <trkpt lat="45.04542" lon="5.23436">
        <ele>641.59997558594</ele>
        <time>2010-11-11T14:15:31.000Z</time>
      </trkpt>
      <trkpt lat="45.04544" lon="5.23436">
        <ele>641</ele>
        <time>2010-11-11T14:15:32.000Z</time>
      </trkpt>
      <trkpt lat="45.04551" lon="5.23437">
        <ele>638.40002441406</ele>
        <time>2010-11-11T14:15:35.000Z</time>
      </trkpt>
      <trkpt lat="45.04562" lon="5.23444">
        <ele>634.20001220703</ele>
        <time>2010-11-11T14:15:41.000Z</time>
      </trkpt>
      <trkpt lat="45.04588" lon="5.23453">
        <ele>625.40002441406</ele>
        <time>2010-11-11T14:15:53.000Z</time>
      </trkpt>
      <trkpt lat="45.04597" lon="5.23457">
        <ele>623</ele>
        <time>2010-11-11T14:15:58.000Z</time>
      </trkpt>
      <trkpt lat="45.04598" lon="5.2347">
        <ele>621.59997558594</ele>
        <time>2010-11-11T14:16:03.000Z</time>
      </trkpt>
      <trkpt lat="45.04595" lon="5.23482">
        <ele>621.40002441406</ele>
        <time>2010-11-11T14:16:08.000Z</time>
      </trkpt>
      <trkpt lat="45.04591" lon="5.23493">
        <ele>621.20001220703</ele>
        <time>2010-11-11T14:16:13.000Z</time>
      </trkpt>
      <trkpt lat="45.04585" lon="5.23502">
        <ele>621</ele>
        <time>2010-11-11T14:16:18.000Z</time>
      </trkpt>
      <trkpt lat="45.04583" lon="5.23508">
        <ele>620.20001220703</ele>
        <time>2010-11-11T14:16:21.000Z</time>
      </trkpt>
      <trkpt lat="45.04571" lon="5.23527">
        <ele>618.20001220703</ele>
        <time>2010-11-11T14:16:35.000Z</time>
      </trkpt>
      <trkpt lat="45.0457" lon="5.23531">
        <ele>617.40002441406</ele>
        <time>2010-11-11T14:16:37.000Z</time>
      </trkpt>
      <trkpt lat="45.0456" lon="5.23548">
        <ele>615</ele>
        <time>2010-11-11T14:16:48.000Z</time>
      </trkpt>
      <trkpt lat="45.04566" lon="5.23555">
        <ele>611.79998779297</ele>
        <time>2010-11-11T14:17:04.000Z</time>
      </trkpt>
      <trkpt lat="45.04567" lon="5.23567">
        <ele>608.59997558594</ele>
        <time>2010-11-11T14:17:14.000Z</time>
      </trkpt>
      <trkpt lat="45.04569" lon="5.2358">
        <ele>604.79998779297</ele>
        <time>2010-11-11T14:17:24.000Z</time>
      </trkpt>
      <trkpt lat="45.04571" lon="5.23584">
        <ele>603.40002441406</ele>
        <time>2010-11-11T14:17:27.000Z</time>
      </trkpt>
      <trkpt lat="45.04574" lon="5.23589">
        <ele>601.79998779297</ele>
        <time>2010-11-11T14:17:29.000Z</time>
      </trkpt>
      <trkpt lat="45.04576" lon="5.23602">
        <ele>597.20001220703</ele>
        <time>2010-11-11T14:17:34.000Z</time>
      </trkpt>
      <trkpt lat="45.04573" lon="5.23625">
        <ele>590.79998779297</ele>
        <time>2010-11-11T14:17:44.000Z</time>
      </trkpt>
      <trkpt lat="45.0457" lon="5.23628">
        <ele>590.20001220703</ele>
        <time>2010-11-11T14:17:54.000Z</time>
      </trkpt>
      <trkpt lat="45.04567" lon="5.23638">
        <ele>587.20001220703</ele>
        <time>2010-11-11T14:18:10.000Z</time>
      </trkpt>
      <trkpt lat="45.0456" lon="5.23651">
        <ele>583.79998779297</ele>
        <time>2010-11-11T14:18:19.000Z</time>
      </trkpt>
      <trkpt lat="45.04553" lon="5.23662">
        <ele>580.59997558594</ele>
        <time>2010-11-11T14:18:24.000Z</time>
      </trkpt>
      <trkpt lat="45.04544" lon="5.23686">
        <ele>571.79998779297</ele>
        <time>2010-11-11T14:18:35.000Z</time>
      </trkpt>
      <trkpt lat="45.04547" lon="5.23695">
        <ele>568.59997558594</ele>
        <time>2010-11-11T14:18:39.000Z</time>
      </trkpt>
      <trkpt lat="45.04548" lon="5.23702">
        <ele>565.59997558594</ele>
        <time>2010-11-11T14:18:42.000Z</time>
      </trkpt>
      <trkpt lat="45.04547" lon="5.2372">
        <ele>558.79998779297</ele>
        <time>2010-11-11T14:18:52.000Z</time>
      </trkpt>
      <trkpt lat="45.04549" lon="5.23735">
        <ele>553.20001220703</ele>
        <time>2010-11-11T14:18:57.000Z</time>
      </trkpt>
      <trkpt lat="45.04541" lon="5.23754">
        <ele>545.79998779297</ele>
        <time>2010-11-11T14:19:05.000Z</time>
      </trkpt>
      <trkpt lat="45.04532" lon="5.23775">
        <ele>537.40002441406</ele>
        <time>2010-11-11T14:19:14.000Z</time>
      </trkpt>
      <trkpt lat="45.0453" lon="5.23781">
        <ele>535.40002441406</ele>
        <time>2010-11-11T14:19:17.000Z</time>
      </trkpt>
      <trkpt lat="45.04525" lon="5.23796">
        <ele>529.59997558594</ele>
        <time>2010-11-11T14:19:25.000Z</time>
      </trkpt>
      <trkpt lat="45.04516" lon="5.2381">
        <ele>524.59997558594</ele>
        <time>2010-11-11T14:19:32.000Z</time>
      </trkpt>
      <trkpt lat="45.04503" lon="5.23828">
        <ele>518.59997558594</ele>
        <time>2010-11-11T14:19:41.000Z</time>
      </trkpt>
      <trkpt lat="45.04502" lon="5.23829">
        <ele>518.20001220703</ele>
        <time>2010-11-11T14:19:42.000Z</time>
      </trkpt>
      <trkpt lat="45.04497" lon="5.23837">
        <ele>515.40002441406</ele>
        <time>2010-11-11T14:19:47.000Z</time>
      </trkpt>
      <trkpt lat="45.04487" lon="5.2385">
        <ele>511</ele>
        <time>2010-11-11T14:19:56.000Z</time>
      </trkpt>
      <trkpt lat="45.04509" lon="5.23865">
        <ele>506.79998779297</ele>
        <time>2010-11-11T14:20:08.000Z</time>
      </trkpt>
      <trkpt lat="45.0453" lon="5.23874">
        <ele>502.79998779297</ele>
        <time>2010-11-11T14:20:17.000Z</time>
      </trkpt>
      <trkpt lat="45.04558" lon="5.23863">
        <ele>505</ele>
        <time>2010-11-11T14:20:26.000Z</time>
      </trkpt>
      <trkpt lat="45.04588" lon="5.23848">
        <ele>507.39999389648</ele>
        <time>2010-11-11T14:20:36.000Z</time>
      </trkpt>
      <trkpt lat="45.04613" lon="5.23849">
        <ele>505.20001220703</ele>
        <time>2010-11-11T14:20:44.000Z</time>
      </trkpt>
      <trkpt lat="45.04644" lon="5.23855">
        <ele>500.79998779297</ele>
        <time>2010-11-11T14:20:53.000Z</time>
      </trkpt>
      <trkpt lat="45.04653" lon="5.23855">
        <ele>500</ele>
        <time>2010-11-11T14:20:56.000Z</time>
      </trkpt>
      <trkpt lat="45.04676" lon="5.23854">
        <ele>498.20001220703</ele>
        <time>2010-11-11T14:21:06.000Z</time>
      </trkpt>
      <trkpt lat="45.04696" lon="5.23847">
        <ele>498.60000610352</ele>
        <time>2010-11-11T14:21:15.000Z</time>
      </trkpt>
      <trkpt lat="45.04706" lon="5.23846">
        <ele>498</ele>
        <time>2010-11-11T14:21:19.000Z</time>
      </trkpt>
      <trkpt lat="45.04731" lon="5.23839">
        <ele>498</ele>
        <time>2010-11-11T14:21:28.000Z</time>
      </trkpt>
      <trkpt lat="45.04756" lon="5.23834">
        <ele>497.60000610352</ele>
        <time>2010-11-11T14:21:37.000Z</time>
      </trkpt>
      <trkpt lat="45.04784" lon="5.23834">
        <ele>496.20001220703</ele>
        <time>2010-11-11T14:21:46.000Z</time>
      </trkpt>
      <trkpt lat="45.04811" lon="5.23841">
        <ele>492.20001220703</ele>
        <time>2010-11-11T14:21:53.000Z</time>
      </trkpt>
      <trkpt lat="45.04837" lon="5.23856">
        <ele>486</ele>
        <time>2010-11-11T14:22:03.000Z</time>
      </trkpt>
      <trkpt lat="45.04854" lon="5.23868">
        <ele>481</ele>
        <time>2010-11-11T14:22:09.000Z</time>
      </trkpt>
      <trkpt lat="45.04864" lon="5.23876">
        <ele>477.79998779297</ele>
        <time>2010-11-11T14:22:14.000Z</time>
      </trkpt>
      <trkpt lat="45.04876" lon="5.23882">
        <ele>475.20001220703</ele>
        <time>2010-11-11T14:22:18.000Z</time>
      </trkpt>
      <trkpt lat="45.04881" lon="5.23886">
        <ele>473.60000610352</ele>
        <time>2010-11-11T14:22:20.000Z</time>
      </trkpt>
      <trkpt lat="45.049" lon="5.23899">
        <ele>468</ele>
        <time>2010-11-11T14:22:28.000Z</time>
      </trkpt>
      <trkpt lat="45.04912" lon="5.23902">
        <ele>466.39999389648</ele>
        <time>2010-11-11T14:22:33.000Z</time>
      </trkpt>
      <trkpt lat="45.04943" lon="5.23887">
        <ele>466.60000610352</ele>
        <time>2010-11-11T14:22:44.000Z</time>
      </trkpt>
      <trkpt lat="45.04961" lon="5.23878">
        <ele>466.79998779297</ele>
        <time>2010-11-11T14:22:54.000Z</time>
      </trkpt>
      <trkpt lat="45.0499" lon="5.23885">
        <ele>459</ele>
        <time>2010-11-11T14:23:03.000Z</time>
      </trkpt>
      <trkpt lat="45.04996" lon="5.23889">
        <ele>456</ele>
        <time>2010-11-11T14:23:05.000Z</time>
      </trkpt>
      <trkpt lat="45.05006" lon="5.23899">
        <ele>450.60000610352</ele>
        <time>2010-11-11T14:23:09.000Z</time>
      </trkpt>
      <trkpt lat="45.0501" lon="5.23903">
        <ele>448.39999389648</ele>
        <time>2010-11-11T14:23:11.000Z</time>
      </trkpt>
      <trkpt lat="45.05019" lon="5.23908">
        <ele>445.39999389648</ele>
        <time>2010-11-11T14:23:16.000Z</time>
      </trkpt>
      <trkpt lat="45.05027" lon="5.23915">
        <ele>442.20001220703</ele>
        <time>2010-11-11T14:23:20.000Z</time>
      </trkpt>
      <trkpt lat="45.05031" lon="5.23918">
        <ele>440.39999389648</ele>
        <time>2010-11-11T14:23:22.000Z</time>
      </trkpt>
      <trkpt lat="45.05038" lon="5.2393">
        <ele>434.60000610352</ele>
        <time>2010-11-11T14:23:27.000Z</time>
      </trkpt>
      <trkpt lat="45.05045" lon="5.23936">
        <ele>431.20001220703</ele>
        <time>2010-11-11T14:23:31.000Z</time>
      </trkpt>
      <trkpt lat="45.05066" lon="5.23948">
        <ele>424.79998779297</ele>
        <time>2010-11-11T14:23:42.000Z</time>
      </trkpt>
      <trkpt lat="45.05077" lon="5.23955">
        <ele>420.79998779297</ele>
        <time>2010-11-11T14:23:47.000Z</time>
      </trkpt>
      <trkpt lat="45.05099" lon="5.23978">
        <ele>409.60000610352</ele>
        <time>2010-11-11T14:23:58.000Z</time>
      </trkpt>
      <trkpt lat="45.05122" lon="5.24001">
        <ele>398</ele>
        <time>2010-11-11T14:24:09.000Z</time>
      </trkpt>
      <trkpt lat="45.05148" lon="5.24019">
        <ele>389.79998779297</ele>
        <time>2010-11-11T14:24:19.000Z</time>
      </trkpt>
      <trkpt lat="45.05164" lon="5.24028">
        <ele>385.39999389648</ele>
        <time>2010-11-11T14:24:26.000Z</time>
      </trkpt>
      <trkpt lat="45.05195" lon="5.24042">
        <ele>378.39999389648</ele>
        <time>2010-11-11T14:24:38.000Z</time>
      </trkpt>
      <trkpt lat="45.05224" lon="5.24065">
        <ele>368</ele>
        <time>2010-11-11T14:24:48.000Z</time>
      </trkpt>
      <trkpt lat="45.0524" lon="5.24063">
        <ele>368.60000610352</ele>
        <time>2010-11-11T14:24:58.000Z</time>
      </trkpt>
      <trkpt lat="45.05264" lon="5.24048">
        <ele>374.60000610352</ele>
        <time>2010-11-11T14:25:08.000Z</time>
      </trkpt>
      <trkpt lat="45.05269" lon="5.24047">
        <ele>375.20001220703</ele>
        <time>2010-11-11T14:25:11.000Z</time>
      </trkpt>
      <trkpt lat="45.05279" lon="5.24046">
        <ele>375.39999389648</ele>
        <time>2010-11-11T14:25:17.000Z</time>
      </trkpt>
      <trkpt lat="45.05299" lon="5.24043">
        <ele>377</ele>
        <time>2010-11-11T14:25:27.000Z</time>
      </trkpt>
      <trkpt lat="45.05327" lon="5.24045">
        <ele>376</ele>
        <time>2010-11-11T14:25:38.000Z</time>
      </trkpt>
      <trkpt lat="45.05345" lon="5.24042">
        <ele>376.39999389648</ele>
        <time>2010-11-11T14:25:46.000Z</time>
      </trkpt>
      <trkpt lat="45.05353" lon="5.24038">
        <ele>377.20001220703</ele>
        <time>2010-11-11T14:25:51.000Z</time>
      </trkpt>
      <trkpt lat="45.05373" lon="5.24026">
        <ele>380.39999389648</ele>
        <time>2010-11-11T14:26:02.000Z</time>
      </trkpt>
      <trkpt lat="45.05375" lon="5.24022">
        <ele>381.60000610352</ele>
        <time>2010-11-11T14:26:04.000Z</time>
      </trkpt>
      <trkpt lat="45.05376" lon="5.24019">
        <ele>383</ele>
        <time>2010-11-11T14:26:06.000Z</time>
      </trkpt>
      <trkpt lat="45.05393" lon="5.23999">
        <ele>389.39999389648</ele>
        <time>2010-11-11T14:26:19.000Z</time>
      </trkpt>
      <trkpt lat="45.05409" lon="5.23981">
        <ele>394.60000610352</ele>
        <time>2010-11-11T14:26:30.000Z</time>
      </trkpt>
      <trkpt lat="45.05426" lon="5.23963">
        <ele>401</ele>
        <time>2010-11-11T14:26:43.000Z</time>
      </trkpt>
      <trkpt lat="45.05447" lon="5.23945">
        <ele>407.60000610352</ele>
        <time>2010-11-11T14:26:56.000Z</time>
      </trkpt>
      <trkpt lat="45.0545" lon="5.23943">
        <ele>408.60000610352</ele>
        <time>2010-11-11T14:26:58.000Z</time>
      </trkpt>
      <trkpt lat="45.05468" lon="5.2393">
        <ele>412.60000610352</ele>
        <time>2010-11-11T14:27:10.000Z</time>
      </trkpt>
      <trkpt lat="45.05488" lon="5.23919">
        <ele>414.79998779297</ele>
        <time>2010-11-11T14:27:22.000Z</time>
      </trkpt>
      <trkpt lat="45.05509" lon="5.23908">
        <ele>419.79998779297</ele>
        <time>2010-11-11T14:27:40.000Z</time>
      </trkpt>
      <trkpt lat="45.05523" lon="5.23899">
        <ele>426</ele>
        <time>2010-11-11T14:27:50.000Z</time>
      </trkpt>
      <trkpt lat="45.05526" lon="5.23896">
        <ele>427.39999389648</ele>
        <time>2010-11-11T14:27:53.000Z</time>
      </trkpt>
      <trkpt lat="45.05539" lon="5.2388">
        <ele>433.79998779297</ele>
        <time>2010-11-11T14:28:09.000Z</time>
      </trkpt>
      <trkpt lat="45.05556" lon="5.23871">
        <ele>439</ele>
        <time>2010-11-11T14:28:23.000Z</time>
      </trkpt>
      <trkpt lat="45.05568" lon="5.23859">
        <ele>443.39999389648</ele>
        <time>2010-11-11T14:28:41.000Z</time>
      </trkpt>
      <trkpt lat="45.05582" lon="5.2384">
        <ele>448.20001220703</ele>
        <time>2010-11-11T14:28:59.000Z</time>
      </trkpt>
      <trkpt lat="45.05592" lon="5.23824">
        <ele>453</ele>
        <time>2010-11-11T14:29:18.000Z</time>
      </trkpt>
      <trkpt lat="45.05604" lon="5.2381">
        <ele>458</ele>
        <time>2010-11-11T14:29:35.000Z</time>
      </trkpt>
      <trkpt lat="45.05617" lon="5.23802">
        <ele>461</ele>
        <time>2010-11-11T14:29:48.000Z</time>
      </trkpt>
      <trkpt lat="45.05624" lon="5.23799">
        <ele>462.20001220703</ele>
        <time>2010-11-11T14:29:55.000Z</time>
      </trkpt>
      <trkpt lat="45.05628" lon="5.23811">
        <ele>462.20001220703</ele>
        <time>2010-11-11T14:30:03.000Z</time>
      </trkpt>
      <trkpt lat="45.05637" lon="5.23821">
        <ele>463.39999389648</ele>
        <time>2010-11-11T14:30:14.000Z</time>
      </trkpt>
      <trkpt lat="45.05641" lon="5.23826">
        <ele>464</ele>
        <time>2010-11-11T14:30:21.000Z</time>
      </trkpt>
      <trkpt lat="45.05646" lon="5.23842">
        <ele>464.60000610352</ele>
        <time>2010-11-11T14:30:34.000Z</time>
      </trkpt>
      <trkpt lat="45.05656" lon="5.23847">
        <ele>466.60000610352</ele>
        <time>2010-11-11T14:30:49.000Z</time>
      </trkpt>
      <trkpt lat="45.0566" lon="5.23855">
        <ele>467.20001220703</ele>
        <time>2010-11-11T14:30:58.000Z</time>
      </trkpt>
      <trkpt lat="45.05668" lon="5.23851">
        <ele>469.20001220703</ele>
        <time>2010-11-11T14:31:11.000Z</time>
      </trkpt>
      <trkpt lat="45.05675" lon="5.23846">
        <ele>470</ele>
        <time>2010-11-11T14:31:19.000Z</time>
      </trkpt>
      <trkpt lat="45.05684" lon="5.23851">
        <ele>469.79998779297</ele>
        <time>2010-11-11T14:31:28.000Z</time>
      </trkpt>
      <trkpt lat="45.05686" lon="5.23853">
        <ele>469.60000610352</ele>
        <time>2010-11-11T14:31:30.000Z</time>
      </trkpt>
      <trkpt lat="45.05692" lon="5.2386">
        <ele>469.20001220703</ele>
        <time>2010-11-11T14:31:35.000Z</time>
      </trkpt>
      <trkpt lat="45.057" lon="5.23872">
        <ele>468.20001220703</ele>
        <time>2010-11-11T14:31:43.000Z</time>
      </trkpt>
      <trkpt lat="45.05704" lon="5.23871">
        <ele>468.39999389648</ele>
        <time>2010-11-11T14:31:46.000Z</time>
      </trkpt>
      <trkpt lat="45.05719" lon="5.23873">
        <ele>468.60000610352</ele>
        <time>2010-11-11T14:31:55.000Z</time>
      </trkpt>
      <trkpt lat="45.05737" lon="5.23873">
        <ele>469.20001220703</ele>
        <time>2010-11-11T14:32:03.000Z</time>
      </trkpt>
      <trkpt lat="45.0575" lon="5.23869">
        <ele>470</ele>
        <time>2010-11-11T14:32:09.000Z</time>
      </trkpt>
      <trkpt lat="45.05763" lon="5.23877">
        <ele>467.60000610352</ele>
        <time>2010-11-11T14:32:14.000Z</time>
      </trkpt>
      <trkpt lat="45.05781" lon="5.23887">
        <ele>464.79998779297</ele>
        <time>2010-11-11T14:32:22.000Z</time>
      </trkpt>
      <trkpt lat="45.05783" lon="5.23888">
        <ele>464.39999389648</ele>
        <time>2010-11-11T14:32:23.000Z</time>
      </trkpt>
      <trkpt lat="45.05792" lon="5.239">
        <ele>463</ele>
        <time>2010-11-11T14:32:29.000Z</time>
      </trkpt>
      <trkpt lat="45.05794" lon="5.23905">
        <ele>462.39999389648</ele>
        <time>2010-11-11T14:32:31.000Z</time>
      </trkpt>
      <trkpt lat="45.05805" lon="5.23912">
        <ele>461.20001220703</ele>
        <time>2010-11-11T14:32:40.000Z</time>
      </trkpt>
      <trkpt lat="45.05821" lon="5.23923">
        <ele>457.20001220703</ele>
        <time>2010-11-11T14:32:48.000Z</time>
      </trkpt>
      <trkpt lat="45.05828" lon="5.23926">
        <ele>455.20001220703</ele>
        <time>2010-11-11T14:32:57.000Z</time>
      </trkpt>
      <trkpt lat="45.05826" lon="5.23928">
        <ele>454.39999389648</ele>
        <time>2010-11-11T14:33:21.000Z</time>
      </trkpt>
      <trkpt lat="45.05826" lon="5.23929">
        <ele>454.20001220703</ele>
        <time>2010-11-11T14:35:09.000Z</time>
      </trkpt>
      <trkpt lat="45.05827" lon="5.23927">
        <ele>455</ele>
        <time>2010-11-11T14:35:29.000Z</time>
      </trkpt>
      <trkpt lat="45.05827" lon="5.23927">
        <ele>455</ele>
        <time>2010-11-11T14:35:47.000Z</time>
      </trkpt>
      <trkpt lat="45.05828" lon="5.23926">
        <ele>455.39999389648</ele>
        <time>2010-11-11T14:35:50.000Z</time>
      </trkpt>
      <trkpt lat="45.05828" lon="5.23923">
        <ele>456.60000610352</ele>
        <time>2010-11-11T14:35:52.000Z</time>
      </trkpt>
      <trkpt lat="45.05838" lon="5.2391">
        <ele>458</ele>
        <time>2010-11-11T14:36:01.000Z</time>
      </trkpt>
      <trkpt lat="45.05852" lon="5.23907">
        <ele>454.60000610352</ele>
        <time>2010-11-11T14:36:08.000Z</time>
      </trkpt>
      <trkpt lat="45.05866" lon="5.23903">
        <ele>451.20001220703</ele>
        <time>2010-11-11T14:36:16.000Z</time>
      </trkpt>
      <trkpt lat="45.0588" lon="5.23889">
        <ele>447.39999389648</ele>
        <time>2010-11-11T14:36:24.000Z</time>
      </trkpt>
      <trkpt lat="45.05885" lon="5.23859">
        <ele>445.39999389648</ele>
        <time>2010-11-11T14:36:34.000Z</time>
      </trkpt>
      <trkpt lat="45.05885" lon="5.23844">
        <ele>444.60000610352</ele>
        <time>2010-11-11T14:36:39.000Z</time>
      </trkpt>
      <trkpt lat="45.05889" lon="5.23802">
        <ele>437</ele>
        <time>2010-11-11T14:36:52.000Z</time>
      </trkpt>
      <trkpt lat="45.05888" lon="5.23795">
        <ele>436</ele>
        <time>2010-11-11T14:36:55.000Z</time>
      </trkpt>
      <trkpt lat="45.05881" lon="5.23782">
        <ele>435.60000610352</ele>
        <time>2010-11-11T14:36:59.000Z</time>
      </trkpt>
      <trkpt lat="45.05867" lon="5.23764">
        <ele>436.39999389648</ele>
        <time>2010-11-11T14:37:05.000Z</time>
      </trkpt>
      <trkpt lat="45.05859" lon="5.23745">
        <ele>435.20001220703</ele>
        <time>2010-11-11T14:37:10.000Z</time>
      </trkpt>
      <trkpt lat="45.05858" lon="5.23713">
        <ele>431.20001220703</ele>
        <time>2010-11-11T14:37:18.000Z</time>
      </trkpt>
      <trkpt lat="45.0586" lon="5.23693">
        <ele>427.79998779297</ele>
        <time>2010-11-11T14:37:22.000Z</time>
      </trkpt>
      <trkpt lat="45.05862" lon="5.23681">
        <ele>425.60000610352</ele>
        <time>2010-11-11T14:37:32.000Z</time>
      </trkpt>
      <trkpt lat="45.05858" lon="5.23689">
        <ele>427.79998779297</ele>
        <time>2010-11-11T14:37:49.000Z</time>
      </trkpt>
      <trkpt lat="45.05863" lon="5.23673">
        <ele>424.20001220703</ele>
        <time>2010-11-11T14:38:05.000Z</time>
      </trkpt>
      <trkpt lat="45.05873" lon="5.2367">
        <ele>421.20001220703</ele>
        <time>2010-11-11T14:38:18.000Z</time>
      </trkpt>
      <trkpt lat="45.05878" lon="5.23666">
        <ele>419.39999389648</ele>
        <time>2010-11-11T14:38:38.000Z</time>
      </trkpt>
      <trkpt lat="45.05877" lon="5.2365">
        <ele>419</ele>
        <time>2010-11-11T14:41:08.000Z</time>
      </trkpt>
      <trkpt lat="45.05884" lon="5.23621">
        <ele>416</ele>
        <time>2010-11-11T14:41:18.000Z</time>
      </trkpt>
      <trkpt lat="45.05875" lon="5.23581">
        <ele>415.60000610352</ele>
        <time>2010-11-11T14:41:28.000Z</time>
      </trkpt>
      <trkpt lat="45.05877" lon="5.23568">
        <ele>414.20001220703</ele>
        <time>2010-11-11T14:41:32.000Z</time>
      </trkpt>
      <trkpt lat="45.05881" lon="5.23553">
        <ele>412</ele>
        <time>2010-11-11T14:41:36.000Z</time>
      </trkpt>
      <trkpt lat="45.05891" lon="5.23531">
        <ele>408.60000610352</ele>
        <time>2010-11-11T14:41:42.000Z</time>
      </trkpt>
      <trkpt lat="45.05889" lon="5.23508">
        <ele>407.20001220703</ele>
        <time>2010-11-11T14:41:49.000Z</time>
      </trkpt>
      <trkpt lat="45.05885" lon="5.23496">
        <ele>406.39999389648</ele>
        <time>2010-11-11T14:41:53.000Z</time>
      </trkpt>
      <trkpt lat="45.05878" lon="5.2348">
        <ele>404</ele>
        <time>2010-11-11T14:42:00.000Z</time>
      </trkpt>
      <trkpt lat="45.05874" lon="5.2347">
        <ele>402.20001220703</ele>
        <time>2010-11-11T14:42:04.000Z</time>
      </trkpt>
      <trkpt lat="45.05855" lon="5.23457">
        <ele>401</ele>
        <time>2010-11-11T14:42:13.000Z</time>
      </trkpt>
      <trkpt lat="45.05838" lon="5.23438">
        <ele>397.20001220703</ele>
        <time>2010-11-11T14:42:23.000Z</time>
      </trkpt>
      <trkpt lat="45.05835" lon="5.23434">
        <ele>396.60000610352</ele>
        <time>2010-11-11T14:42:24.000Z</time>
      </trkpt>
      <trkpt lat="45.05815" lon="5.2341">
        <ele>390</ele>
        <time>2010-11-11T14:42:33.000Z</time>
      </trkpt>
      <trkpt lat="45.05802" lon="5.23394">
        <ele>384.79998779297</ele>
        <time>2010-11-11T14:42:39.000Z</time>
      </trkpt>
      <trkpt lat="45.05787" lon="5.23382">
        <ele>381.20001220703</ele>
        <time>2010-11-11T14:42:48.000Z</time>
      </trkpt>
      <trkpt lat="45.0576" lon="5.23384">
        <ele>381.79998779297</ele>
        <time>2010-11-11T14:42:58.000Z</time>
      </trkpt>
      <trkpt lat="45.05727" lon="5.23374">
        <ele>378.60000610352</ele>
        <time>2010-11-11T14:43:08.000Z</time>
      </trkpt>
      <trkpt lat="45.05706" lon="5.23361">
        <ele>373.39999389648</ele>
        <time>2010-11-11T14:43:17.000Z</time>
      </trkpt>
      <trkpt lat="45.05669" lon="5.23351">
        <ele>368.79998779297</ele>
        <time>2010-11-11T14:43:26.000Z</time>
      </trkpt>
      <trkpt lat="45.05637" lon="5.2334">
        <ele>365.20001220703</ele>
        <time>2010-11-11T14:43:35.000Z</time>
      </trkpt>
      <trkpt lat="45.05625" lon="5.23337">
        <ele>364.60000610352</ele>
        <time>2010-11-11T14:43:40.000Z</time>
      </trkpt>
      <trkpt lat="45.05613" lon="5.23329">
        <ele>362</ele>
        <time>2010-11-11T14:43:45.000Z</time>
      </trkpt>
      <trkpt lat="45.05581" lon="5.23316">
        <ele>358.79998779297</ele>
        <time>2010-11-11T14:43:57.000Z</time>
      </trkpt>
      <trkpt lat="45.05578" lon="5.23315">
        <ele>358.79998779297</ele>
        <time>2010-11-11T14:43:58.000Z</time>
      </trkpt>
      <trkpt lat="45.05549" lon="5.2329">
        <ele>353.79998779297</ele>
        <time>2010-11-11T14:44:10.000Z</time>
      </trkpt>
      <trkpt lat="45.05547" lon="5.23288">
        <ele>353.20001220703</ele>
        <time>2010-11-11T14:44:11.000Z</time>
      </trkpt>
      <trkpt lat="45.05539" lon="5.23279">
        <ele>351</ele>
        <time>2010-11-11T14:44:15.000Z</time>
      </trkpt>
      <trkpt lat="45.05512" lon="5.23249">
        <ele>343.79998779297</ele>
        <time>2010-11-11T14:44:26.000Z</time>
      </trkpt>
      <trkpt lat="45.05485" lon="5.23222">
        <ele>338.79998779297</ele>
        <time>2010-11-11T14:44:36.000Z</time>
      </trkpt>
      <trkpt lat="45.05457" lon="5.23192">
        <ele>333.39999389648</ele>
        <time>2010-11-11T14:44:48.000Z</time>
      </trkpt>
      <trkpt lat="45.05438" lon="5.2316">
        <ele>325.39999389648</ele>
        <time>2010-11-11T14:44:59.000Z</time>
      </trkpt>
      <trkpt lat="45.05412" lon="5.23131">
        <ele>318.60000610352</ele>
        <time>2010-11-11T14:45:09.000Z</time>
      </trkpt>
      <trkpt lat="45.05385" lon="5.23093">
        <ele>307.79998779297</ele>
        <time>2010-11-11T14:45:19.000Z</time>
      </trkpt>
      <trkpt lat="45.0536" lon="5.23064">
        <ele>303.39999389648</ele>
        <time>2010-11-11T14:45:29.000Z</time>
      </trkpt>
      <trkpt lat="45.0533" lon="5.23051">
        <ele>305.20001220703</ele>
        <time>2010-11-11T14:45:39.000Z</time>
      </trkpt>
      <trkpt lat="45.05323" lon="5.23053">
        <ele>306.39999389648</ele>
        <time>2010-11-11T14:45:51.000Z</time>
      </trkpt>
      <trkpt lat="45.0532" lon="5.23057">
        <ele>307.39999389648</ele>
        <time>2010-11-11T14:46:17.000Z</time>
      </trkpt>
      <trkpt lat="45.0532" lon="5.23056">
        <ele>307.39999389648</ele>
        <time>2010-11-11T14:48:48.000Z</time>
      </trkpt>
      <trkpt lat="45.05303" lon="5.23065">
        <ele>310.60000610352</ele>
        <time>2010-11-11T14:49:01.000Z</time>
      </trkpt>
      <trkpt lat="45.05277" lon="5.2308">
        <ele>316</ele>
        <time>2010-11-11T14:49:15.000Z</time>
      </trkpt>
      <trkpt lat="45.05266" lon="5.23086">
        <ele>318.79998779297</ele>
        <time>2010-11-11T14:49:28.000Z</time>
      </trkpt>
      <trkpt lat="45.05266" lon="5.23086">
        <ele>318.60000610352</ele>
        <time>2010-11-11T14:49:29.000Z</time>
      </trkpt>
      <trkpt lat="45.0525" lon="5.23063">
        <ele>315.20001220703</ele>
        <time>2010-11-11T14:49:39.000Z</time>
      </trkpt>
      <trkpt lat="45.05235" lon="5.23028">
        <ele>312.20001220703</ele>
        <time>2010-11-11T14:49:48.000Z</time>
      </trkpt>
      <trkpt lat="45.05234" lon="5.22987">
        <ele>305.60000610352</ele>
        <time>2010-11-11T14:49:57.000Z</time>
      </trkpt>
      <trkpt lat="45.05226" lon="5.22948">
        <ele>302</ele>
        <time>2010-11-11T14:50:07.000Z</time>
      </trkpt>
      <trkpt lat="45.05222" lon="5.22942">
        <ele>302.20001220703</ele>
        <time>2010-11-11T14:50:11.000Z</time>
      </trkpt>
      <trkpt lat="45.0521" lon="5.2293">
        <ele>303.60000610352</ele>
        <time>2010-11-11T14:50:24.000Z</time>
      </trkpt>
      <trkpt lat="45.05196" lon="5.22917">
        <ele>304.79998779297</ele>
        <time>2010-11-11T14:50:48.000Z</time>
      </trkpt>
      <trkpt lat="45.05205" lon="5.2292">
        <ele>303.20001220703</ele>
        <time>2010-11-11T14:50:55.000Z</time>
      </trkpt>
      <trkpt lat="45.05217" lon="5.2294">
        <ele>303.20001220703</ele>
        <time>2010-11-11T14:51:05.000Z</time>
      </trkpt>
      <trkpt lat="45.05227" lon="5.22956">
        <ele>303.20001220703</ele>
        <time>2010-11-11T14:51:16.000Z</time>
      </trkpt>
      <trkpt lat="45.05227" lon="5.22958">
        <ele>303.20001220703</ele>
        <time>2010-11-11T14:51:17.000Z</time>
      </trkpt>
      <trkpt lat="45.05234" lon="5.22982">
        <ele>304.79998779297</ele>
        <time>2010-11-11T14:51:32.000Z</time>
      </trkpt>
      <trkpt lat="45.05236" lon="5.23014">
        <ele>309.20001220703</ele>
        <time>2010-11-11T14:51:43.000Z</time>
      </trkpt>
      <trkpt lat="45.05244" lon="5.23048">
        <ele>313.79998779297</ele>
        <time>2010-11-11T14:51:54.000Z</time>
      </trkpt>
      <trkpt lat="45.05256" lon="5.23079">
        <ele>317.60000610352</ele>
        <time>2010-11-11T14:52:06.000Z</time>
      </trkpt>
      <trkpt lat="45.05271" lon="5.23092">
        <ele>320.39999389648</ele>
        <time>2010-11-11T14:52:15.000Z</time>
      </trkpt>
      <trkpt lat="45.05273" lon="5.23093">
        <ele>320.60000610352</ele>
        <time>2010-11-11T14:52:16.000Z</time>
      </trkpt>
      <trkpt lat="45.05296" lon="5.23108">
        <ele>324.39999389648</ele>
        <time>2010-11-11T14:52:28.000Z</time>
      </trkpt>
      <trkpt lat="45.05309" lon="5.2311">
        <ele>324.20001220703</ele>
        <time>2010-11-11T14:52:35.000Z</time>
      </trkpt>
      <trkpt lat="45.05311" lon="5.23119">
        <ele>328</ele>
        <time>2010-11-11T14:52:41.000Z</time>
      </trkpt>
      <trkpt lat="45.05303" lon="5.2312">
        <ele>328.79998779297</ele>
        <time>2010-11-11T14:52:44.000Z</time>
      </trkpt>
      <trkpt lat="45.05292" lon="5.23121">
        <ele>329.79998779297</ele>
        <time>2010-11-11T14:52:49.000Z</time>
      </trkpt>
      <trkpt lat="45.05269" lon="5.23134">
        <ele>336</ele>
        <time>2010-11-11T14:53:02.000Z</time>
      </trkpt>
      <trkpt lat="45.05246" lon="5.23134">
        <ele>338.60000610352</ele>
        <time>2010-11-11T14:53:13.000Z</time>
      </trkpt>
      <trkpt lat="45.05226" lon="5.23125">
        <ele>340.39999389648</ele>
        <time>2010-11-11T14:53:23.000Z</time>
      </trkpt>
      <trkpt lat="45.05205" lon="5.2311">
        <ele>340.60000610352</ele>
        <time>2010-11-11T14:53:33.000Z</time>
      </trkpt>
      <trkpt lat="45.05182" lon="5.23099">
        <ele>342.79998779297</ele>
        <time>2010-11-11T14:53:46.000Z</time>
      </trkpt>
      <trkpt lat="45.05162" lon="5.2308">
        <ele>342.20001220703</ele>
        <time>2010-11-11T14:53:58.000Z</time>
      </trkpt>
      <trkpt lat="45.05151" lon="5.23066">
        <ele>345</ele>
        <time>2010-11-11T14:54:05.000Z</time>
      </trkpt>
      <trkpt lat="45.05136" lon="5.23052">
        <ele>348.60000610352</ele>
        <time>2010-11-11T14:54:15.000Z</time>
      </trkpt>
      <trkpt lat="45.05132" lon="5.23049">
        <ele>349.79998779297</ele>
        <time>2010-11-11T14:54:17.000Z</time>
      </trkpt>
      <trkpt lat="45.05119" lon="5.23035">
        <ele>352.79998779297</ele>
        <time>2010-11-11T14:54:25.000Z</time>
      </trkpt>
      <trkpt lat="45.05105" lon="5.23006">
        <ele>353.79998779297</ele>
        <time>2010-11-11T14:54:36.000Z</time>
      </trkpt>
      <trkpt lat="45.051" lon="5.22998">
        <ele>354.20001220703</ele>
        <time>2010-11-11T14:54:41.000Z</time>
      </trkpt>
      <trkpt lat="45.05083" lon="5.22972">
        <ele>359.20001220703</ele>
        <time>2010-11-11T14:54:53.000Z</time>
      </trkpt>
      <trkpt lat="45.0506" lon="5.22942">
        <ele>362.39999389648</ele>
        <time>2010-11-11T14:55:06.000Z</time>
      </trkpt>
      <trkpt lat="45.05038" lon="5.22915">
        <ele>364.60000610352</ele>
        <time>2010-11-11T14:55:17.000Z</time>
      </trkpt>
      <trkpt lat="45.05027" lon="5.22893">
        <ele>367</ele>
        <time>2010-11-11T14:55:28.000Z</time>
      </trkpt>
      <trkpt lat="45.05014" lon="5.22874">
        <ele>369.79998779297</ele>
        <time>2010-11-11T14:55:38.000Z</time>
      </trkpt>
      <trkpt lat="45.04994" lon="5.22856">
        <ele>374.20001220703</ele>
        <time>2010-11-11T14:55:49.000Z</time>
      </trkpt>
      <trkpt lat="45.04986" lon="5.22853">
        <ele>375.60000610352</ele>
        <time>2010-11-11T14:55:54.000Z</time>
      </trkpt>
      <trkpt lat="45.04983" lon="5.22853">
        <ele>376.20001220703</ele>
        <time>2010-11-11T14:55:56.000Z</time>
      </trkpt>
      <trkpt lat="45.04976" lon="5.22855">
        <ele>377.60000610352</ele>
        <time>2010-11-11T14:56:00.000Z</time>
      </trkpt>
      <trkpt lat="45.04967" lon="5.22857">
        <ele>379.20001220703</ele>
        <time>2010-11-11T14:56:04.000Z</time>
      </trkpt>
      <trkpt lat="45.04962" lon="5.22859">
        <ele>380.20001220703</ele>
        <time>2010-11-11T14:56:06.000Z</time>
      </trkpt>
      <trkpt lat="45.0495" lon="5.22858">
        <ele>382.39999389648</ele>
        <time>2010-11-11T14:56:12.000Z</time>
      </trkpt>
      <trkpt lat="45.04941" lon="5.22856">
        <ele>384</ele>
        <time>2010-11-11T14:56:18.000Z</time>
      </trkpt>
      <trkpt lat="45.0493" lon="5.2285">
        <ele>385.60000610352</ele>
        <time>2010-11-11T14:56:34.000Z</time>
      </trkpt>
      <trkpt lat="45.04918" lon="5.22856">
        <ele>388.20001220703</ele>
        <time>2010-11-11T14:56:45.000Z</time>
      </trkpt>
      <trkpt lat="45.04901" lon="5.22856">
        <ele>392.79998779297</ele>
        <time>2010-11-11T14:56:56.000Z</time>
      </trkpt>
      <trkpt lat="45.04896" lon="5.22854">
        <ele>394.20001220703</ele>
        <time>2010-11-11T14:57:00.000Z</time>
      </trkpt>
      <trkpt lat="45.04873" lon="5.22844">
        <ele>399.20001220703</ele>
        <time>2010-11-11T14:57:13.000Z</time>
      </trkpt>
      <trkpt lat="45.04866" lon="5.22843">
        <ele>400.79998779297</ele>
        <time>2010-11-11T14:57:17.000Z</time>
      </trkpt>
      <trkpt lat="45.04857" lon="5.22836">
        <ele>402.20001220703</ele>
        <time>2010-11-11T14:57:22.000Z</time>
      </trkpt>
      <trkpt lat="45.04844" lon="5.22823">
        <ele>403.60000610352</ele>
        <time>2010-11-11T14:57:33.000Z</time>
      </trkpt>
      <trkpt lat="45.04827" lon="5.22813">
        <ele>406.60000610352</ele>
        <time>2010-11-11T14:57:48.000Z</time>
      </trkpt>
      <trkpt lat="45.04808" lon="5.228">
        <ele>409</ele>
        <time>2010-11-11T14:58:07.000Z</time>
      </trkpt>
      <trkpt lat="45.04797" lon="5.22795">
        <ele>410.79998779297</ele>
        <time>2010-11-11T14:58:23.000Z</time>
      </trkpt>
      <trkpt lat="45.04779" lon="5.22786">
        <ele>413.20001220703</ele>
        <time>2010-11-11T14:58:42.000Z</time>
      </trkpt>
      <trkpt lat="45.04772" lon="5.22777">
        <ele>413</ele>
        <time>2010-11-11T14:58:51.000Z</time>
      </trkpt>
      <trkpt lat="45.0476" lon="5.22774">
        <ele>415</ele>
        <time>2010-11-11T14:59:00.000Z</time>
      </trkpt>
      <trkpt lat="45.04743" lon="5.22771">
        <ele>418.20001220703</ele>
        <time>2010-11-11T14:59:10.000Z</time>
      </trkpt>
      <trkpt lat="45.04738" lon="5.2277">
        <ele>419.20001220703</ele>
        <time>2010-11-11T14:59:13.000Z</time>
      </trkpt>
      <trkpt lat="45.04726" lon="5.22766">
        <ele>421.39999389648</ele>
        <time>2010-11-11T14:59:21.000Z</time>
      </trkpt>
      <trkpt lat="45.04718" lon="5.22765">
        <ele>423</ele>
        <time>2010-11-11T14:59:26.000Z</time>
      </trkpt>
      <trkpt lat="45.0471" lon="5.22762">
        <ele>424.20001220703</ele>
        <time>2010-11-11T14:59:30.000Z</time>
      </trkpt>
      <trkpt lat="45.04703" lon="5.2276">
        <ele>425.39999389648</ele>
        <time>2010-11-11T14:59:34.000Z</time>
      </trkpt>
      <trkpt lat="45.04688" lon="5.22758">
        <ele>428.39999389648</ele>
        <time>2010-11-11T14:59:42.000Z</time>
      </trkpt>
      <trkpt lat="45.04678" lon="5.22762">
        <ele>431.79998779297</ele>
        <time>2010-11-11T14:59:47.000Z</time>
      </trkpt>
      <trkpt lat="45.04648" lon="5.22763">
        <ele>440.60000610352</ele>
        <time>2010-11-11T15:00:01.000Z</time>
      </trkpt>
      <trkpt lat="45.04627" lon="5.22758">
        <ele>445.39999389648</ele>
        <time>2010-11-11T15:00:13.000Z</time>
      </trkpt>
      <trkpt lat="45.04611" lon="5.22748">
        <ele>446.79998779297</ele>
        <time>2010-11-11T15:00:26.000Z</time>
      </trkpt>
      <trkpt lat="45.04603" lon="5.22737">
        <ele>446</ele>
        <time>2010-11-11T15:00:36.000Z</time>
      </trkpt>
      <trkpt lat="45.04582" lon="5.2272">
        <ele>447.39999389648</ele>
        <time>2010-11-11T15:00:50.000Z</time>
      </trkpt>
      <trkpt lat="45.04578" lon="5.22717">
        <ele>448</ele>
        <time>2010-11-11T15:00:53.000Z</time>
      </trkpt>
      <trkpt lat="45.04567" lon="5.22713">
        <ele>451</ele>
        <time>2010-11-11T15:01:05.000Z</time>
      </trkpt>
      <trkpt lat="45.04557" lon="5.22709">
        <ele>453.60000610352</ele>
        <time>2010-11-11T15:01:11.000Z</time>
      </trkpt>
      <trkpt lat="45.04537" lon="5.22692">
        <ele>455.39999389648</ele>
        <time>2010-11-11T15:01:22.000Z</time>
      </trkpt>
      <trkpt lat="45.04523" lon="5.22689">
        <ele>459.79998779297</ele>
        <time>2010-11-11T15:01:33.000Z</time>
      </trkpt>
      <trkpt lat="45.04499" lon="5.2268">
        <ele>465</ele>
        <time>2010-11-11T15:01:46.000Z</time>
      </trkpt>
      <trkpt lat="45.04478" lon="5.22673">
        <ele>468</ele>
        <time>2010-11-11T15:01:58.000Z</time>
      </trkpt>
      <trkpt lat="45.04472" lon="5.22672">
        <ele>469</ele>
        <time>2010-11-11T15:02:01.000Z</time>
      </trkpt>
      <trkpt lat="45.04461" lon="5.22667">
        <ele>470</ele>
        <time>2010-11-11T15:02:09.000Z</time>
      </trkpt>
      <trkpt lat="45.04444" lon="5.22665">
        <ele>473.79998779297</ele>
        <time>2010-11-11T15:02:19.000Z</time>
      </trkpt>
      <trkpt lat="45.04431" lon="5.22662">
        <ele>477</ele>
        <time>2010-11-11T15:02:27.000Z</time>
      </trkpt>
      <trkpt lat="45.04419" lon="5.22661">
        <ele>480.20001220703</ele>
        <time>2010-11-11T15:02:34.000Z</time>
      </trkpt>
      <trkpt lat="45.04412" lon="5.22661">
        <ele>482</ele>
        <time>2010-11-11T15:02:38.000Z</time>
      </trkpt>
      <trkpt lat="45.04391" lon="5.22665">
        <ele>487.60000610352</ele>
        <time>2010-11-11T15:02:53.000Z</time>
      </trkpt>
      <trkpt lat="45.04371" lon="5.22668">
        <ele>493.39999389648</ele>
        <time>2010-11-11T15:03:04.000Z</time>
      </trkpt>
      <trkpt lat="45.04369" lon="5.22668">
        <ele>493.79998779297</ele>
        <time>2010-11-11T15:03:05.000Z</time>
      </trkpt>
      <trkpt lat="45.04352" lon="5.22673">
        <ele>499.79998779297</ele>
        <time>2010-11-11T15:03:18.000Z</time>
      </trkpt>
      <trkpt lat="45.04343" lon="5.22665">
        <ele>500.39999389648</ele>
        <time>2010-11-11T15:03:35.000Z</time>
      </trkpt>
      <trkpt lat="45.0434" lon="5.22665">
        <ele>501</ele>
        <time>2010-11-11T15:04:17.000Z</time>
      </trkpt>
      <trkpt lat="45.04337" lon="5.22647">
        <ele>502.20001220703</ele>
        <time>2010-11-11T15:05:43.000Z</time>
      </trkpt>
      <trkpt lat="45.04332" lon="5.22622">
        <ele>503.79998779297</ele>
        <time>2010-11-11T15:05:56.000Z</time>
      </trkpt>
      <trkpt lat="45.0433" lon="5.22614">
        <ele>504.60000610352</ele>
        <time>2010-11-11T15:06:00.000Z</time>
      </trkpt>
      <trkpt lat="45.04322" lon="5.22594">
        <ele>507.39999389648</ele>
        <time>2010-11-11T15:06:08.000Z</time>
      </trkpt>
      <trkpt lat="45.04309" lon="5.22568">
        <ele>511</ele>
        <time>2010-11-11T15:06:17.000Z</time>
      </trkpt>
      <trkpt lat="45.04296" lon="5.22549">
        <ele>514</ele>
        <time>2010-11-11T15:06:29.000Z</time>
      </trkpt>
      <trkpt lat="45.04277" lon="5.22534">
        <ele>518.20001220703</ele>
        <time>2010-11-11T15:06:47.000Z</time>
      </trkpt>
      <trkpt lat="45.04267" lon="5.22518">
        <ele>519.20001220703</ele>
        <time>2010-11-11T15:06:59.000Z</time>
      </trkpt>
      <trkpt lat="45.04255" lon="5.22503">
        <ele>520.20001220703</ele>
        <time>2010-11-11T15:07:12.000Z</time>
      </trkpt>
      <trkpt lat="45.04241" lon="5.22498">
        <ele>523.20001220703</ele>
        <time>2010-11-11T15:07:24.000Z</time>
      </trkpt>
      <trkpt lat="45.04224" lon="5.22501">
        <ele>529.20001220703</ele>
        <time>2010-11-11T15:07:40.000Z</time>
      </trkpt>
      <trkpt lat="45.04205" lon="5.22503">
        <ele>535.40002441406</ele>
        <time>2010-11-11T15:07:59.000Z</time>
      </trkpt>
      <trkpt lat="45.04205" lon="5.22508">
        <ele>536.20001220703</ele>
        <time>2010-11-11T15:08:04.000Z</time>
      </trkpt>
      <trkpt lat="45.04203" lon="5.22514">
        <ele>537.79998779297</ele>
        <time>2010-11-11T15:08:07.000Z</time>
      </trkpt>
      <trkpt lat="45.04202" lon="5.22518">
        <ele>538.59997558594</ele>
        <time>2010-11-11T15:08:09.000Z</time>
      </trkpt>
      <trkpt lat="45.04203" lon="5.22548">
        <ele>543</ele>
        <time>2010-11-11T15:08:23.000Z</time>
      </trkpt>
      <trkpt lat="45.04199" lon="5.2258">
        <ele>549.59997558594</ele>
        <time>2010-11-11T15:08:40.000Z</time>
      </trkpt>
      <trkpt lat="45.04193" lon="5.22608">
        <ele>555.59997558594</ele>
        <time>2010-11-11T15:08:55.000Z</time>
      </trkpt>
      <trkpt lat="45.04191" lon="5.22624">
        <ele>559</ele>
        <time>2010-11-11T15:09:12.000Z</time>
      </trkpt>
      <trkpt lat="45.04183" lon="5.22637">
        <ele>564.40002441406</ele>
        <time>2010-11-11T15:09:31.000Z</time>
      </trkpt>
      <trkpt lat="45.04177" lon="5.22656">
        <ele>570.40002441406</ele>
        <time>2010-11-11T15:09:46.000Z</time>
      </trkpt>
      <trkpt lat="45.0417" lon="5.22668">
        <ele>576.20001220703</ele>
        <time>2010-11-11T15:10:03.000Z</time>
      </trkpt>
      <trkpt lat="45.04164" lon="5.22686">
        <ele>581</ele>
        <time>2010-11-11T15:10:21.000Z</time>
      </trkpt>
      <trkpt lat="45.04154" lon="5.22698">
        <ele>587.59997558594</ele>
        <time>2010-11-11T15:10:34.000Z</time>
      </trkpt>
      <trkpt lat="45.04148" lon="5.22711">
        <ele>592.59997558594</ele>
        <time>2010-11-11T15:10:49.000Z</time>
      </trkpt>
      <trkpt lat="45.04139" lon="5.22717">
        <ele>598.40002441406</ele>
        <time>2010-11-11T15:11:09.000Z</time>
      </trkpt>
      <trkpt lat="45.04135" lon="5.22708">
        <ele>600.40002441406</ele>
        <time>2010-11-11T15:11:26.000Z</time>
      </trkpt>
      <trkpt lat="45.04128" lon="5.22727">
        <ele>606.40002441406</ele>
        <time>2010-11-11T15:11:47.000Z</time>
      </trkpt>
      <trkpt lat="45.04125" lon="5.22757">
        <ele>610</ele>
        <time>2010-11-11T15:11:57.000Z</time>
      </trkpt>
      <trkpt lat="45.04125" lon="5.22759">
        <ele>610.59997558594</ele>
        <time>2010-11-11T15:11:58.000Z</time>
      </trkpt>
      <trkpt lat="45.04118" lon="5.22778">
        <ele>615.79998779297</ele>
        <time>2010-11-11T15:12:09.000Z</time>
      </trkpt>
      <trkpt lat="45.04114" lon="5.22789">
        <ele>618.40002441406</ele>
        <time>2010-11-11T15:12:16.000Z</time>
      </trkpt>
      <trkpt lat="45.04106" lon="5.22809">
        <ele>624.79998779297</ele>
        <time>2010-11-11T15:12:32.000Z</time>
      </trkpt>
      <trkpt lat="45.04102" lon="5.22822">
        <ele>627.20001220703</ele>
        <time>2010-11-11T15:12:42.000Z</time>
      </trkpt>
      <trkpt lat="45.04095" lon="5.22851">
        <ele>632.40002441406</ele>
        <time>2010-11-11T15:12:56.000Z</time>
      </trkpt>
      <trkpt lat="45.04094" lon="5.22857">
        <ele>633.20001220703</ele>
        <time>2010-11-11T15:12:58.000Z</time>
      </trkpt>
      <trkpt lat="45.04083" lon="5.22883">
        <ele>639</ele>
        <time>2010-11-11T15:13:12.000Z</time>
      </trkpt>
      <trkpt lat="45.04077" lon="5.22902">
        <ele>643</ele>
        <time>2010-11-11T15:13:27.000Z</time>
      </trkpt>
      <trkpt lat="45.0407" lon="5.22911">
        <ele>647</ele>
        <time>2010-11-11T15:13:36.000Z</time>
      </trkpt>
      <trkpt lat="45.04068" lon="5.22913">
        <ele>648</ele>
        <time>2010-11-11T15:13:38.000Z</time>
      </trkpt>
      <trkpt lat="45.04063" lon="5.22918">
        <ele>650.59997558594</ele>
        <time>2010-11-11T15:13:42.000Z</time>
      </trkpt>
      <trkpt lat="45.04059" lon="5.22923">
        <ele>653.40002441406</ele>
        <time>2010-11-11T15:13:46.000Z</time>
      </trkpt>
      <trkpt lat="45.04058" lon="5.22926">
        <ele>654.59997558594</ele>
        <time>2010-11-11T15:13:48.000Z</time>
      </trkpt>
      <trkpt lat="45.04051" lon="5.22946">
        <ele>659.40002441406</ele>
        <time>2010-11-11T15:13:58.000Z</time>
      </trkpt>
      <trkpt lat="45.04045" lon="5.22959">
        <ele>662.79998779297</ele>
        <time>2010-11-11T15:14:09.000Z</time>
      </trkpt>
      <trkpt lat="45.04035" lon="5.22967">
        <ele>668</ele>
        <time>2010-11-11T15:14:27.000Z</time>
      </trkpt>
      <trkpt lat="45.04035" lon="5.22988">
        <ele>668.79998779297</ele>
        <time>2010-11-11T15:14:45.000Z</time>
      </trkpt>
      <trkpt lat="45.04036" lon="5.23004">
        <ele>669.40002441406</ele>
        <time>2010-11-11T15:15:02.000Z</time>
      </trkpt>
      <trkpt lat="45.04039" lon="5.23026">
        <ele>672.79998779297</ele>
        <time>2010-11-11T15:15:21.000Z</time>
      </trkpt>
      <trkpt lat="45.04039" lon="5.23042">
        <ele>676.40002441406</ele>
        <time>2010-11-11T15:15:36.000Z</time>
      </trkpt>
      <trkpt lat="45.04036" lon="5.23053">
        <ele>679.59997558594</ele>
        <time>2010-11-11T15:15:51.000Z</time>
      </trkpt>
      <trkpt lat="45.04033" lon="5.23071">
        <ele>684</ele>
        <time>2010-11-11T15:16:11.000Z</time>
      </trkpt>
      <trkpt lat="45.04031" lon="5.23082">
        <ele>686.79998779297</ele>
        <time>2010-11-11T15:16:26.000Z</time>
      </trkpt>
      <trkpt lat="45.0403" lon="5.23095">
        <ele>690.59997558594</ele>
        <time>2010-11-11T15:16:40.000Z</time>
      </trkpt>
      <trkpt lat="45.04027" lon="5.2309">
        <ele>690</ele>
        <time>2010-11-11T15:16:47.000Z</time>
      </trkpt>
      <trkpt lat="45.04017" lon="5.23085">
        <ele>690.59997558594</ele>
        <time>2010-11-11T15:16:54.000Z</time>
      </trkpt>
      <trkpt lat="45.03994" lon="5.23078">
        <ele>694.20001220703</ele>
        <time>2010-11-11T15:17:05.000Z</time>
      </trkpt>
      <trkpt lat="45.03993" lon="5.23078">
        <ele>694.40002441406</ele>
        <time>2010-11-11T15:17:06.000Z</time>
      </trkpt>
      <trkpt lat="45.03967" lon="5.23086">
        <ele>699.20001220703</ele>
        <time>2010-11-11T15:17:22.000Z</time>
      </trkpt>
      <trkpt lat="45.03962" lon="5.23091">
        <ele>700.59997558594</ele>
        <time>2010-11-11T15:17:26.000Z</time>
      </trkpt>
      <trkpt lat="45.03959" lon="5.23097">
        <ele>702</ele>
        <time>2010-11-11T15:17:30.000Z</time>
      </trkpt>
      <trkpt lat="45.03952" lon="5.2311">
        <ele>704.79998779297</ele>
        <time>2010-11-11T15:17:42.000Z</time>
      </trkpt>
      <trkpt lat="45.03947" lon="5.23125">
        <ele>707.40002441406</ele>
        <time>2010-11-11T15:17:55.000Z</time>
      </trkpt>
      <trkpt lat="45.03947" lon="5.23124">
        <ele>707.40002441406</ele>
        <time>2010-11-11T15:18:14.000Z</time>
      </trkpt>
      <trkpt lat="45.03954" lon="5.23108">
        <ele>704.40002441406</ele>
        <time>2010-11-11T15:19:36.000Z</time>
      </trkpt>
      <trkpt lat="45.03958" lon="5.23098">
        <ele>702.40002441406</ele>
        <time>2010-11-11T15:19:48.000Z</time>
      </trkpt>
      <trkpt lat="45.03961" lon="5.23095">
        <ele>701.40002441406</ele>
        <time>2010-11-11T15:19:56.000Z</time>
      </trkpt>
      <trkpt lat="45.03966" lon="5.23092">
        <ele>700.40002441406</ele>
        <time>2010-11-11T15:20:01.000Z</time>
      </trkpt>
      <trkpt lat="45.03985" lon="5.23082">
        <ele>696</ele>
        <time>2010-11-11T15:20:12.000Z</time>
      </trkpt>
      <trkpt lat="45.03995" lon="5.23083">
        <ele>694.59997558594</ele>
        <time>2010-11-11T15:20:18.000Z</time>
      </trkpt>
      <trkpt lat="45.04007" lon="5.23088">
        <ele>693.59997558594</ele>
        <time>2010-11-11T15:20:24.000Z</time>
      </trkpt>
      <trkpt lat="45.0403" lon="5.231">
        <ele>692.40002441406</ele>
        <time>2010-11-11T15:20:37.000Z</time>
      </trkpt>
      <trkpt lat="45.0404" lon="5.23104">
        <ele>691.59997558594</ele>
        <time>2010-11-11T15:20:41.000Z</time>
      </trkpt>
      <trkpt lat="45.04069" lon="5.23113">
        <ele>689.59997558594</ele>
        <time>2010-11-11T15:20:52.000Z</time>
      </trkpt>
      <trkpt lat="45.04081" lon="5.23113">
        <ele>687.59997558594</ele>
        <time>2010-11-11T15:21:01.000Z</time>
      </trkpt>
      <trkpt lat="45.04083" lon="5.23117">
        <ele>688.79998779297</ele>
        <time>2010-11-11T15:21:18.000Z</time>
      </trkpt>
      <trkpt lat="45.04084" lon="5.23129">
        <ele>693.20001220703</ele>
        <time>2010-11-11T15:21:34.000Z</time>
      </trkpt>
      <trkpt lat="45.04083" lon="5.23141">
        <ele>698</ele>
        <time>2010-11-11T15:21:50.000Z</time>
      </trkpt>
      <trkpt lat="45.04084" lon="5.23148">
        <ele>700.79998779297</ele>
        <time>2010-11-11T15:22:08.000Z</time>
      </trkpt>
      <trkpt lat="45.0408" lon="5.23153">
        <ele>702.79998779297</ele>
        <time>2010-11-11T15:22:21.000Z</time>
      </trkpt>
      <trkpt lat="45.04074" lon="5.23159">
        <ele>705.79998779297</ele>
        <time>2010-11-11T15:22:33.000Z</time>
      </trkpt>
      <trkpt lat="45.04069" lon="5.23166">
        <ele>708.79998779297</ele>
        <time>2010-11-11T15:22:48.000Z</time>
      </trkpt>
      <trkpt lat="45.04065" lon="5.23175">
        <ele>710.59997558594</ele>
        <time>2010-11-11T15:23:02.000Z</time>
      </trkpt>
      <trkpt lat="45.04058" lon="5.23183">
        <ele>712.20001220703</ele>
        <time>2010-11-11T15:23:16.000Z</time>
      </trkpt>
      <trkpt lat="45.04053" lon="5.2319">
        <ele>713.59997558594</ele>
        <time>2010-11-11T15:23:30.000Z</time>
      </trkpt>
      <trkpt lat="45.04048" lon="5.23202">
        <ele>715.59997558594</ele>
        <time>2010-11-11T15:23:47.000Z</time>
      </trkpt>
      <trkpt lat="45.04049" lon="5.2322">
        <ele>718.20001220703</ele>
        <time>2010-11-11T15:24:01.000Z</time>
      </trkpt>
      <trkpt lat="45.0405" lon="5.23224">
        <ele>718.79998779297</ele>
        <time>2010-11-11T15:24:05.000Z</time>
      </trkpt>
      <trkpt lat="45.04056" lon="5.23234">
        <ele>720.20001220703</ele>
        <time>2010-11-11T15:24:19.000Z</time>
      </trkpt>
      <trkpt lat="45.04064" lon="5.2324">
        <ele>721</ele>
        <time>2010-11-11T15:24:31.000Z</time>
      </trkpt>
      <trkpt lat="45.04064" lon="5.2324">
        <ele>721</ele>
        <time>2010-11-11T15:24:53.000Z</time>
      </trkpt>
      <trkpt lat="45.04048" lon="5.23232">
        <ele>720</ele>
        <time>2010-11-11T15:25:03.000Z</time>
      </trkpt>
      <trkpt lat="45.0405" lon="5.23227">
        <ele>719</ele>
        <time>2010-11-11T15:26:13.000Z</time>
      </trkpt>
      <trkpt lat="45.04049" lon="5.23201">
        <ele>715.40002441406</ele>
        <time>2010-11-11T15:26:29.000Z</time>
      </trkpt>
      <trkpt lat="45.04049" lon="5.232">
        <ele>715.20001220703</ele>
        <time>2010-11-11T15:27:39.000Z</time>
      </trkpt>
      <trkpt lat="45.0405" lon="5.232">
        <ele>715.20001220703</ele>
        <time>2010-11-11T15:29:49.000Z</time>
      </trkpt>
      <trkpt lat="45.04057" lon="5.23189">
        <ele>713.20001220703</ele>
        <time>2010-11-11T15:29:59.000Z</time>
      </trkpt>
      <trkpt lat="45.04066" lon="5.23176">
        <ele>710.59997558594</ele>
        <time>2010-11-11T15:30:11.000Z</time>
      </trkpt>
      <trkpt lat="45.04072" lon="5.23161">
        <ele>706.79998779297</ele>
        <time>2010-11-11T15:30:21.000Z</time>
      </trkpt>
      <trkpt lat="45.04082" lon="5.2315">
        <ele>701.40002441406</ele>
        <time>2010-11-11T15:30:33.000Z</time>
      </trkpt>
      <trkpt lat="45.04088" lon="5.23137">
        <ele>696.40002441406</ele>
        <time>2010-11-11T15:30:44.000Z</time>
      </trkpt>
      <trkpt lat="45.04091" lon="5.23124">
        <ele>690.79998779297</ele>
        <time>2010-11-11T15:30:56.000Z</time>
      </trkpt>
      <trkpt lat="45.04091" lon="5.23121">
        <ele>689.59997558594</ele>
        <time>2010-11-11T15:30:58.000Z</time>
      </trkpt>
      <trkpt lat="45.0409" lon="5.23115">
        <ele>687.59997558594</ele>
        <time>2010-11-11T15:31:01.000Z</time>
      </trkpt>
      <trkpt lat="45.04098" lon="5.23107">
        <ele>683.59997558594</ele>
        <time>2010-11-11T15:31:09.000Z</time>
      </trkpt>
      <trkpt lat="45.0411" lon="5.23104">
        <ele>681.40002441406</ele>
        <time>2010-11-11T15:31:14.000Z</time>
      </trkpt>
      <trkpt lat="45.04122" lon="5.231">
        <ele>678.59997558594</ele>
        <time>2010-11-11T15:31:21.000Z</time>
      </trkpt>
      <trkpt lat="45.04136" lon="5.23101">
        <ele>677.20001220703</ele>
        <time>2010-11-11T15:31:26.000Z</time>
      </trkpt>
      <trkpt lat="45.04159" lon="5.23095">
        <ele>672.20001220703</ele>
        <time>2010-11-11T15:31:36.000Z</time>
      </trkpt>
      <trkpt lat="45.0418" lon="5.23087">
        <ele>668.20001220703</ele>
        <time>2010-11-11T15:31:45.000Z</time>
      </trkpt>
      <trkpt lat="45.04184" lon="5.23086">
        <ele>667.79998779297</ele>
        <time>2010-11-11T15:31:47.000Z</time>
      </trkpt>
      <trkpt lat="45.04191" lon="5.23083">
        <ele>666.79998779297</ele>
        <time>2010-11-11T15:31:50.000Z</time>
      </trkpt>
      <trkpt lat="45.04205" lon="5.2308">
        <ele>666</ele>
        <time>2010-11-11T15:31:55.000Z</time>
      </trkpt>
      <trkpt lat="45.04232" lon="5.23066">
        <ele>660.79998779297</ele>
        <time>2010-11-11T15:32:07.000Z</time>
      </trkpt>
      <trkpt lat="45.04254" lon="5.23055">
        <ele>656</ele>
        <time>2010-11-11T15:32:17.000Z</time>
      </trkpt>
      <trkpt lat="45.04262" lon="5.23052">
        <ele>654.40002441406</ele>
        <time>2010-11-11T15:32:21.000Z</time>
      </trkpt>
      <trkpt lat="45.0427" lon="5.2305">
        <ele>653.20001220703</ele>
        <time>2010-11-11T15:32:24.000Z</time>
      </trkpt>
      <trkpt lat="45.043" lon="5.23032">
        <ele>644.20001220703</ele>
        <time>2010-11-11T15:32:37.000Z</time>
      </trkpt>
      <trkpt lat="45.04308" lon="5.23029">
        <ele>642.59997558594</ele>
        <time>2010-11-11T15:32:40.000Z</time>
      </trkpt>
      <trkpt lat="45.04316" lon="5.23025">
        <ele>641</ele>
        <time>2010-11-11T15:32:44.000Z</time>
      </trkpt>
      <trkpt lat="45.04321" lon="5.23026">
        <ele>641</ele>
        <time>2010-11-11T15:32:46.000Z</time>
      </trkpt>
      <trkpt lat="45.0433" lon="5.23028">
        <ele>641.79998779297</ele>
        <time>2010-11-11T15:32:50.000Z</time>
      </trkpt>
      <trkpt lat="45.04355" lon="5.23034">
        <ele>639.20001220703</ele>
        <time>2010-11-11T15:33:01.000Z</time>
      </trkpt>
      <trkpt lat="45.04385" lon="5.23051">
        <ele>638</ele>
        <time>2010-11-11T15:33:11.000Z</time>
      </trkpt>
      <trkpt lat="45.04404" lon="5.23064">
        <ele>637.59997558594</ele>
        <time>2010-11-11T15:33:20.000Z</time>
      </trkpt>
      <trkpt lat="45.04432" lon="5.23086">
        <ele>635.20001220703</ele>
        <time>2010-11-11T15:33:31.000Z</time>
      </trkpt>
      <trkpt lat="45.0445" lon="5.23097">
        <ele>630.40002441406</ele>
        <time>2010-11-11T15:33:37.000Z</time>
      </trkpt>
      <trkpt lat="45.04461" lon="5.23111">
        <ele>629.40002441406</ele>
        <time>2010-11-11T15:33:42.000Z</time>
      </trkpt>
      <trkpt lat="45.04467" lon="5.23121">
        <ele>629.20001220703</ele>
        <time>2010-11-11T15:33:46.000Z</time>
      </trkpt>
      <trkpt lat="45.04473" lon="5.23134">
        <ele>630</ele>
        <time>2010-11-11T15:33:50.000Z</time>
      </trkpt>
      <trkpt lat="45.04486" lon="5.23168">
        <ele>632.20001220703</ele>
        <time>2010-11-11T15:34:01.000Z</time>
      </trkpt>
      <trkpt lat="45.04518" lon="5.23194">
        <ele>625.20001220703</ele>
        <time>2010-11-11T15:34:14.000Z</time>
      </trkpt>
      <trkpt lat="45.0452" lon="5.23195">
        <ele>624.59997558594</ele>
        <time>2010-11-11T15:34:15.000Z</time>
      </trkpt>
      <trkpt lat="45.04526" lon="5.23202">
        <ele>623.40002441406</ele>
        <time>2010-11-11T15:34:19.000Z</time>
      </trkpt>
      <trkpt lat="45.04556" lon="5.23216">
        <ele>614.79998779297</ele>
        <time>2010-11-11T15:34:30.000Z</time>
      </trkpt>
      <trkpt lat="45.04587" lon="5.23237">
        <ele>607.59997558594</ele>
        <time>2010-11-11T15:34:40.000Z</time>
      </trkpt>
      <trkpt lat="45.04613" lon="5.23266">
        <ele>604.20001220703</ele>
        <time>2010-11-11T15:34:51.000Z</time>
      </trkpt>
      <trkpt lat="45.04636" lon="5.23299">
        <ele>601.20001220703</ele>
        <time>2010-11-11T15:35:02.000Z</time>
      </trkpt>
      <trkpt lat="45.04661" lon="5.23336">
        <ele>597</ele>
        <time>2010-11-11T15:35:16.000Z</time>
      </trkpt>
      <trkpt lat="45.04678" lon="5.23358">
        <ele>593.79998779297</ele>
        <time>2010-11-11T15:35:25.000Z</time>
      </trkpt>
      <trkpt lat="45.04692" lon="5.23375">
        <ele>591.20001220703</ele>
        <time>2010-11-11T15:35:32.000Z</time>
      </trkpt>
      <trkpt lat="45.04714" lon="5.23408">
        <ele>588.40002441406</ele>
        <time>2010-11-11T15:35:46.000Z</time>
      </trkpt>
      <trkpt lat="45.04735" lon="5.23439">
        <ele>585.40002441406</ele>
        <time>2010-11-11T15:35:57.000Z</time>
      </trkpt>
      <trkpt lat="45.04741" lon="5.23445">
        <ele>584.40002441406</ele>
        <time>2010-11-11T15:36:00.000Z</time>
      </trkpt>
      <trkpt lat="45.04745" lon="5.23434">
        <ele>581.59997558594</ele>
        <time>2010-11-11T15:36:08.000Z</time>
      </trkpt>
      <trkpt lat="45.04742" lon="5.23403">
        <ele>578.20001220703</ele>
        <time>2010-11-11T15:36:19.000Z</time>
      </trkpt>
      <trkpt lat="45.04741" lon="5.23375">
        <ele>574</ele>
        <time>2010-11-11T15:36:25.000Z</time>
      </trkpt>
      <trkpt lat="45.04739" lon="5.23355">
        <ele>571.40002441406</ele>
        <time>2010-11-11T15:36:30.000Z</time>
      </trkpt>
      <trkpt lat="45.04737" lon="5.23321">
        <ele>567.79998779297</ele>
        <time>2010-11-11T15:36:39.000Z</time>
      </trkpt>
      <trkpt lat="45.04745" lon="5.2328">
        <ele>561</ele>
        <time>2010-11-11T15:36:50.000Z</time>
      </trkpt>
      <trkpt lat="45.04748" lon="5.2327">
        <ele>559.40002441406</ele>
        <time>2010-11-11T15:36:53.000Z</time>
      </trkpt>
      <trkpt lat="45.04745" lon="5.23226">
        <ele>554.59997558594</ele>
        <time>2010-11-11T15:37:04.000Z</time>
      </trkpt>
      <trkpt lat="45.04736" lon="5.23192">
        <ele>552</ele>
        <time>2010-11-11T15:37:14.000Z</time>
      </trkpt>
      <trkpt lat="45.04719" lon="5.23138">
        <ele>545.20001220703</ele>
        <time>2010-11-11T15:37:27.000Z</time>
      </trkpt>
      <trkpt lat="45.04704" lon="5.23109">
        <ele>542</ele>
        <time>2010-11-11T15:37:35.000Z</time>
      </trkpt>
      <trkpt lat="45.04701" lon="5.23105">
        <ele>541.79998779297</ele>
        <time>2010-11-11T15:37:37.000Z</time>
      </trkpt>
      <trkpt lat="45.04722" lon="5.23116">
        <ele>537.20001220703</ele>
        <time>2010-11-11T15:37:49.000Z</time>
      </trkpt>
      <trkpt lat="45.04746" lon="5.23137">
        <ele>535.20001220703</ele>
        <time>2010-11-11T15:38:00.000Z</time>
      </trkpt>
      <trkpt lat="45.04755" lon="5.23145">
        <ele>534</ele>
        <time>2010-11-11T15:38:04.000Z</time>
      </trkpt>
      <trkpt lat="45.04774" lon="5.23158">
        <ele>530.59997558594</ele>
        <time>2010-11-11T15:38:12.000Z</time>
      </trkpt>
      <trkpt lat="45.04798" lon="5.23176">
        <ele>525.40002441406</ele>
        <time>2010-11-11T15:38:22.000Z</time>
      </trkpt>
      <trkpt lat="45.04801" lon="5.23178">
        <ele>524.59997558594</ele>
        <time>2010-11-11T15:38:23.000Z</time>
      </trkpt>
      <trkpt lat="45.04832" lon="5.23199">
        <ele>516.20001220703</ele>
        <time>2010-11-11T15:38:36.000Z</time>
      </trkpt>
      <trkpt lat="45.04858" lon="5.23221">
        <ele>510.39999389648</ele>
        <time>2010-11-11T15:38:48.000Z</time>
      </trkpt>
      <trkpt lat="45.04881" lon="5.23246">
        <ele>507.39999389648</ele>
        <time>2010-11-11T15:38:59.000Z</time>
      </trkpt>
      <trkpt lat="45.04902" lon="5.23277">
        <ele>507.20001220703</ele>
        <time>2010-11-11T15:39:10.000Z</time>
      </trkpt>
      <trkpt lat="45.04906" lon="5.23283">
        <ele>507.39999389648</ele>
        <time>2010-11-11T15:39:12.000Z</time>
      </trkpt>
      <trkpt lat="45.04918" lon="5.23291">
        <ele>505.79998779297</ele>
        <time>2010-11-11T15:39:18.000Z</time>
      </trkpt>
      <trkpt lat="45.04944" lon="5.23299">
        <ele>499.20001220703</ele>
        <time>2010-11-11T15:39:29.000Z</time>
      </trkpt>
      <trkpt lat="45.04968" lon="5.23312">
        <ele>494.60000610352</ele>
        <time>2010-11-11T15:39:39.000Z</time>
      </trkpt>
      <trkpt lat="45.04992" lon="5.23334">
        <ele>492.79998779297</ele>
        <time>2010-11-11T15:39:49.000Z</time>
      </trkpt>
      <trkpt lat="45.05012" lon="5.23354">
        <ele>488.60000610352</ele>
        <time>2010-11-11T15:39:58.000Z</time>
      </trkpt>
      <trkpt lat="45.05026" lon="5.23384">
        <ele>488.60000610352</ele>
        <time>2010-11-11T15:40:08.000Z</time>
      </trkpt>
      <trkpt lat="45.05029" lon="5.23397">
        <ele>489.60000610352</ele>
        <time>2010-11-11T15:40:12.000Z</time>
      </trkpt>
      <trkpt lat="45.05032" lon="5.23405">
        <ele>490</ele>
        <time>2010-11-11T15:40:15.000Z</time>
      </trkpt>
      <trkpt lat="45.0504" lon="5.23419">
        <ele>488.60000610352</ele>
        <time>2010-11-11T15:40:20.000Z</time>
      </trkpt>
      <trkpt lat="45.05064" lon="5.23449">
        <ele>484.20001220703</ele>
        <time>2010-11-11T15:40:32.000Z</time>
      </trkpt>
      <trkpt lat="45.05088" lon="5.23476">
        <ele>481.39999389648</ele>
        <time>2010-11-11T15:40:43.000Z</time>
      </trkpt>
      <trkpt lat="45.0509" lon="5.23482">
        <ele>482.60000610352</ele>
        <time>2010-11-11T15:40:56.000Z</time>
      </trkpt>
      <trkpt lat="45.0509" lon="5.2349">
        <ele>484.79998779297</ele>
        <time>2010-11-11T15:41:09.000Z</time>
      </trkpt>
      <trkpt lat="45.0509" lon="5.23508">
        <ele>489.60000610352</ele>
        <time>2010-11-11T15:41:31.000Z</time>
      </trkpt>
      <trkpt lat="45.05083" lon="5.23526">
        <ele>495.60000610352</ele>
        <time>2010-11-11T15:41:44.000Z</time>
      </trkpt>
      <trkpt lat="45.05076" lon="5.23536">
        <ele>500.39999389648</ele>
        <time>2010-11-11T15:42:02.000Z</time>
      </trkpt>
      <trkpt lat="45.05066" lon="5.23549">
        <ele>507</ele>
        <time>2010-11-11T15:42:18.000Z</time>
      </trkpt>
      <trkpt lat="45.0506" lon="5.23564">
        <ele>512.20001220703</ele>
        <time>2010-11-11T15:42:34.000Z</time>
      </trkpt>
      <trkpt lat="45.05047" lon="5.23579">
        <ele>518.20001220703</ele>
        <time>2010-11-11T15:42:53.000Z</time>
      </trkpt>
      <trkpt lat="45.05043" lon="5.23582">
        <ele>519.79998779297</ele>
        <time>2010-11-11T15:42:57.000Z</time>
      </trkpt>
      <trkpt lat="45.05031" lon="5.23601">
        <ele>525.20001220703</ele>
        <time>2010-11-11T15:43:08.000Z</time>
      </trkpt>
      <trkpt lat="45.05016" lon="5.23617">
        <ele>529.20001220703</ele>
        <time>2010-11-11T15:43:22.000Z</time>
      </trkpt>
      <trkpt lat="45.05002" lon="5.23624">
        <ele>531.59997558594</ele>
        <time>2010-11-11T15:43:33.000Z</time>
      </trkpt>
      <trkpt lat="45.04987" lon="5.23627">
        <ele>534.20001220703</ele>
        <time>2010-11-11T15:43:45.000Z</time>
      </trkpt>
      <trkpt lat="45.04981" lon="5.2363">
        <ele>535</ele>
        <time>2010-11-11T15:43:48.000Z</time>
      </trkpt>
      <trkpt lat="45.04971" lon="5.23632">
        <ele>536.59997558594</ele>
        <time>2010-11-11T15:43:54.000Z</time>
      </trkpt>
      <trkpt lat="45.04954" lon="5.23637">
        <ele>539.20001220703</ele>
        <time>2010-11-11T15:44:05.000Z</time>
      </trkpt>
      <trkpt lat="45.04931" lon="5.23644">
        <ele>542</ele>
        <time>2010-11-11T15:44:16.000Z</time>
      </trkpt>
      <trkpt lat="45.04929" lon="5.23645">
        <ele>542.20001220703</ele>
        <time>2010-11-11T15:44:17.000Z</time>
      </trkpt>
      <trkpt lat="45.04917" lon="5.23652">
        <ele>543.20001220703</ele>
        <time>2010-11-11T15:44:24.000Z</time>
      </trkpt>
      <trkpt lat="45.04894" lon="5.23665">
        <ele>542.59997558594</ele>
        <time>2010-11-11T15:44:36.000Z</time>
      </trkpt>
      <trkpt lat="45.04891" lon="5.23667">
        <ele>542.40002441406</ele>
        <time>2010-11-11T15:44:38.000Z</time>
      </trkpt>
      <trkpt lat="45.04874" lon="5.23685">
        <ele>538.20001220703</ele>
        <time>2010-11-11T15:44:50.000Z</time>
      </trkpt>
      <trkpt lat="45.04867" lon="5.23696">
        <ele>535.40002441406</ele>
        <time>2010-11-11T15:44:54.000Z</time>
      </trkpt>
      <trkpt lat="45.04859" lon="5.23721">
        <ele>528.59997558594</ele>
        <time>2010-11-11T15:45:06.000Z</time>
      </trkpt>
      <trkpt lat="45.04853" lon="5.23735">
        <ele>524.59997558594</ele>
        <time>2010-11-11T15:45:14.000Z</time>
      </trkpt>
      <trkpt lat="45.04842" lon="5.23753">
        <ele>518.40002441406</ele>
        <time>2010-11-11T15:45:23.000Z</time>
      </trkpt>
      <trkpt lat="45.04838" lon="5.23755">
        <ele>517.59997558594</ele>
        <time>2010-11-11T15:45:25.000Z</time>
      </trkpt>
      <trkpt lat="45.04814" lon="5.23769">
        <ele>514.59997558594</ele>
        <time>2010-11-11T15:45:34.000Z</time>
      </trkpt>
      <trkpt lat="45.04788" lon="5.23791">
        <ele>509.20001220703</ele>
        <time>2010-11-11T15:45:45.000Z</time>
      </trkpt>
      <trkpt lat="45.04757" lon="5.23806">
        <ele>506.20001220703</ele>
        <time>2010-11-11T15:45:56.000Z</time>
      </trkpt>
      <trkpt lat="45.04758" lon="5.2382">
        <ele>502</ele>
        <time>2010-11-11T15:46:03.000Z</time>
      </trkpt>
      <trkpt lat="45.04756" lon="5.23826">
        <ele>500</ele>
        <time>2010-11-11T15:46:14.000Z</time>
      </trkpt>
      <trkpt lat="45.04751" lon="5.23828">
        <ele>499.60000610352</ele>
        <time>2010-11-11T15:46:18.000Z</time>
      </trkpt>
      <trkpt lat="45.0474" lon="5.23831">
        <ele>499.60000610352</ele>
        <time>2010-11-11T15:46:22.000Z</time>
      </trkpt>
      <trkpt lat="45.04711" lon="5.23838">
        <ele>500</ele>
        <time>2010-11-11T15:46:33.000Z</time>
      </trkpt>
      <trkpt lat="45.0468" lon="5.2385">
        <ele>499.39999389648</ele>
        <time>2010-11-11T15:46:44.000Z</time>
      </trkpt>
      <trkpt lat="45.04645" lon="5.23855">
        <ele>500.79998779297</ele>
        <time>2010-11-11T15:46:56.000Z</time>
      </trkpt>
      <trkpt lat="45.04623" lon="5.23849">
        <ele>504.39999389648</ele>
        <time>2010-11-11T15:47:05.000Z</time>
      </trkpt>
      <trkpt lat="45.04606" lon="5.23849">
        <ele>505.79998779297</ele>
        <time>2010-11-11T15:47:12.000Z</time>
      </trkpt>
      <trkpt lat="45.04598" lon="5.23848">
        <ele>506.60000610352</ele>
        <time>2010-11-11T15:47:16.000Z</time>
      </trkpt>
      <trkpt lat="45.04571" lon="5.23847">
        <ele>508.79998779297</ele>
        <time>2010-11-11T15:47:29.000Z</time>
      </trkpt>
      <trkpt lat="45.04565" lon="5.23849">
        <ele>508.60000610352</ele>
        <time>2010-11-11T15:47:31.000Z</time>
      </trkpt>
      <trkpt lat="45.04541" lon="5.23865">
        <ele>505.20001220703</ele>
        <time>2010-11-11T15:47:42.000Z</time>
      </trkpt>
      <trkpt lat="45.04518" lon="5.23869">
        <ele>505</ele>
        <time>2010-11-11T15:47:52.000Z</time>
      </trkpt>
      <trkpt lat="45.04492" lon="5.23859">
        <ele>508.60000610352</ele>
        <time>2010-11-11T15:48:04.000Z</time>
      </trkpt>
      <trkpt lat="45.04484" lon="5.23857">
        <ele>509.20001220703</ele>
        <time>2010-11-11T15:48:07.000Z</time>
      </trkpt>
      <trkpt lat="45.04459" lon="5.23847">
        <ele>511</ele>
        <time>2010-11-11T15:48:16.000Z</time>
      </trkpt>
      <trkpt lat="45.04436" lon="5.23844">
        <ele>510.60000610352</ele>
        <time>2010-11-11T15:48:25.000Z</time>
      </trkpt>
      <trkpt lat="45.04411" lon="5.23843">
        <ele>512.20001220703</ele>
        <time>2010-11-11T15:48:33.000Z</time>
      </trkpt>
      <trkpt lat="45.044" lon="5.23849">
        <ele>514.79998779297</ele>
        <time>2010-11-11T15:48:38.000Z</time>
      </trkpt>
      <trkpt lat="45.04392" lon="5.23855">
        <ele>516.59997558594</ele>
        <time>2010-11-11T15:48:42.000Z</time>
      </trkpt>
      <trkpt lat="45.04371" lon="5.2386">
        <ele>522.40002441406</ele>
        <time>2010-11-11T15:48:53.000Z</time>
      </trkpt>
      <trkpt lat="45.04363" lon="5.23863">
        <ele>524.79998779297</ele>
        <time>2010-11-11T15:48:58.000Z</time>
      </trkpt>
      <trkpt lat="45.04353" lon="5.23867">
        <ele>527.20001220703</ele>
        <time>2010-11-11T15:49:04.000Z</time>
      </trkpt>
      <trkpt lat="45.04348" lon="5.23869">
        <ele>528.40002441406</ele>
        <time>2010-11-11T15:49:07.000Z</time>
      </trkpt>
      <trkpt lat="45.04332" lon="5.23884">
        <ele>530</ele>
        <time>2010-11-11T15:49:19.000Z</time>
      </trkpt>
      <trkpt lat="45.04317" lon="5.23903">
        <ele>531</ele>
        <time>2010-11-11T15:49:33.000Z</time>
      </trkpt>
      <trkpt lat="45.04304" lon="5.23906">
        <ele>535.59997558594</ele>
        <time>2010-11-11T15:49:48.000Z</time>
      </trkpt>
      <trkpt lat="45.04289" lon="5.23917">
        <ele>538.40002441406</ele>
        <time>2010-11-11T15:50:00.000Z</time>
      </trkpt>
      <trkpt lat="45.04273" lon="5.23922">
        <ele>544.20001220703</ele>
        <time>2010-11-11T15:50:14.000Z</time>
      </trkpt>
      <trkpt lat="45.04265" lon="5.23924">
        <ele>546.59997558594</ele>
        <time>2010-11-11T15:50:22.000Z</time>
      </trkpt>
      <trkpt lat="45.04261" lon="5.23926">
        <ele>548</ele>
        <time>2010-11-11T15:50:26.000Z</time>
      </trkpt>
      <trkpt lat="45.04246" lon="5.23932">
        <ele>552.79998779297</ele>
        <time>2010-11-11T15:50:40.000Z</time>
      </trkpt>
      <trkpt lat="45.04237" lon="5.23939">
        <ele>555</ele>
        <time>2010-11-11T15:50:49.000Z</time>
      </trkpt>
      <trkpt lat="45.04229" lon="5.23943">
        <ele>557</ele>
        <time>2010-11-11T15:50:54.000Z</time>
      </trkpt>
      <trkpt lat="45.0422" lon="5.23955">
        <ele>558.20001220703</ele>
        <time>2010-11-11T15:51:00.000Z</time>
      </trkpt>
      <trkpt lat="45.04215" lon="5.23963">
        <ele>558.40002441406</ele>
        <time>2010-11-11T15:51:03.000Z</time>
      </trkpt>
      <trkpt lat="45.04208" lon="5.23969">
        <ele>559.79998779297</ele>
        <time>2010-11-11T15:51:08.000Z</time>
      </trkpt>
      <trkpt lat="45.042" lon="5.23977">
        <ele>560.79998779297</ele>
        <time>2010-11-11T15:51:13.000Z</time>
      </trkpt>
      <trkpt lat="45.04183" lon="5.23997">
        <ele>561.79998779297</ele>
        <time>2010-11-11T15:51:22.000Z</time>
      </trkpt>
      <trkpt lat="45.04176" lon="5.24008">
        <ele>563.79998779297</ele>
        <time>2010-11-11T15:51:27.000Z</time>
      </trkpt>
      <trkpt lat="45.04167" lon="5.24027">
        <ele>566.59997558594</ele>
        <time>2010-11-11T15:51:35.000Z</time>
      </trkpt>
      <trkpt lat="45.04165" lon="5.24063">
        <ele>566.59997558594</ele>
        <time>2010-11-11T15:51:47.000Z</time>
      </trkpt>
      <trkpt lat="45.04165" lon="5.2407">
        <ele>566.40002441406</ele>
        <time>2010-11-11T15:51:50.000Z</time>
      </trkpt>
      <trkpt lat="45.04164" lon="5.24076">
        <ele>566.59997558594</ele>
        <time>2010-11-11T15:51:53.000Z</time>
      </trkpt>
      <trkpt lat="45.04163" lon="5.24083">
        <ele>566.79998779297</ele>
        <time>2010-11-11T15:51:57.000Z</time>
      </trkpt>
      <trkpt lat="45.04161" lon="5.24099">
        <ele>567.40002441406</ele>
        <time>2010-11-11T15:52:04.000Z</time>
      </trkpt>
      <trkpt lat="45.04158" lon="5.24132">
        <ele>568.40002441406</ele>
        <time>2010-11-11T15:52:18.000Z</time>
      </trkpt>
      <trkpt lat="45.04157" lon="5.2414">
        <ele>568.59997558594</ele>
        <time>2010-11-11T15:52:23.000Z</time>
      </trkpt>
      <trkpt lat="45.04153" lon="5.24165">
        <ele>569.40002441406</ele>
        <time>2010-11-11T15:52:33.000Z</time>
      </trkpt>
      <trkpt lat="45.04149" lon="5.24173">
        <ele>567.79998779297</ele>
        <time>2010-11-11T15:52:38.000Z</time>
      </trkpt>
      <trkpt lat="45.04129" lon="5.24172">
        <ele>570.20001220703</ele>
        <time>2010-11-11T15:52:53.000Z</time>
      </trkpt>
      <trkpt lat="45.04125" lon="5.24169">
        <ele>571.59997558594</ele>
        <time>2010-11-11T15:52:56.000Z</time>
      </trkpt>
      <trkpt lat="45.04121" lon="5.24167">
        <ele>572.79998779297</ele>
        <time>2010-11-11T15:52:59.000Z</time>
      </trkpt>
      <trkpt lat="45.04102" lon="5.24155">
        <ele>575.79998779297</ele>
        <time>2010-11-11T15:53:12.000Z</time>
      </trkpt>
      <trkpt lat="45.04076" lon="5.24149">
        <ele>578.40002441406</ele>
        <time>2010-11-11T15:53:24.000Z</time>
      </trkpt>
      <trkpt lat="45.04074" lon="5.24149">
        <ele>578.40002441406</ele>
        <time>2010-11-11T15:53:25.000Z</time>
      </trkpt>
      <trkpt lat="45.04064" lon="5.24148">
        <ele>578.59997558594</ele>
        <time>2010-11-11T15:53:30.000Z</time>
      </trkpt>
      <trkpt lat="45.04038" lon="5.24142">
        <ele>579.59997558594</ele>
        <time>2010-11-11T15:53:43.000Z</time>
      </trkpt>
      <trkpt lat="45.04002" lon="5.24137">
        <ele>581.59997558594</ele>
        <time>2010-11-11T15:53:57.000Z</time>
      </trkpt>
      <trkpt lat="45.03997" lon="5.24136">
        <ele>581.79998779297</ele>
        <time>2010-11-11T15:53:59.000Z</time>
      </trkpt>
      <trkpt lat="45.03955" lon="5.24132">
        <ele>582.20001220703</ele>
        <time>2010-11-11T15:54:13.000Z</time>
      </trkpt>
      <trkpt lat="45.03923" lon="5.2413">
        <ele>582</ele>
        <time>2010-11-11T15:54:24.000Z</time>
      </trkpt>
      <trkpt lat="45.03891" lon="5.24142">
        <ele>579.20001220703</ele>
        <time>2010-11-11T15:54:35.000Z</time>
      </trkpt>
      <trkpt lat="45.03861" lon="5.24169">
        <ele>572.59997558594</ele>
        <time>2010-11-11T15:54:46.000Z</time>
      </trkpt>
      <trkpt lat="45.03839" lon="5.24185">
        <ele>570.40002441406</ele>
        <time>2010-11-11T15:54:56.000Z</time>
      </trkpt>
      <trkpt lat="45.03807" lon="5.24209">
        <ele>563</ele>
        <time>2010-11-11T15:55:10.000Z</time>
      </trkpt>
      <trkpt lat="45.03776" lon="5.24206">
        <ele>561.59997558594</ele>
        <time>2010-11-11T15:55:22.000Z</time>
      </trkpt>
      <trkpt lat="45.03745" lon="5.24198">
        <ele>561.40002441406</ele>
        <time>2010-11-11T15:55:34.000Z</time>
      </trkpt>
      <trkpt lat="45.03721" lon="5.24198">
        <ele>558.20001220703</ele>
        <time>2010-11-11T15:55:44.000Z</time>
      </trkpt>
      <trkpt lat="45.03681" lon="5.24196">
        <ele>553.20001220703</ele>
        <time>2010-11-11T15:55:58.000Z</time>
      </trkpt>
      <trkpt lat="45.03649" lon="5.2419">
        <ele>549.79998779297</ele>
        <time>2010-11-11T15:56:10.000Z</time>
      </trkpt>
      <trkpt lat="45.03646" lon="5.24201">
        <ele>546.79998779297</ele>
        <time>2010-11-11T15:56:15.000Z</time>
      </trkpt>
      <trkpt lat="45.03678" lon="5.24223">
        <ele>546.40002441406</ele>
        <time>2010-11-11T15:56:27.000Z</time>
      </trkpt>
      <trkpt lat="45.03699" lon="5.24261">
        <ele>541</ele>
        <time>2010-11-11T15:56:39.000Z</time>
      </trkpt>
      <trkpt lat="45.03716" lon="5.24299">
        <ele>536.20001220703</ele>
        <time>2010-11-11T15:56:52.000Z</time>
      </trkpt>
      <trkpt lat="45.03728" lon="5.24343">
        <ele>530</ele>
        <time>2010-11-11T15:57:05.000Z</time>
      </trkpt>
      <trkpt lat="45.03728" lon="5.24346">
        <ele>529.79998779297</ele>
        <time>2010-11-11T15:57:06.000Z</time>
      </trkpt>
      <trkpt lat="45.03718" lon="5.24363">
        <ele>527.40002441406</ele>
        <time>2010-11-11T15:57:13.000Z</time>
      </trkpt>
      <trkpt lat="45.03694" lon="5.24377">
        <ele>525.20001220703</ele>
        <time>2010-11-11T15:57:26.000Z</time>
      </trkpt>
      <trkpt lat="45.03668" lon="5.24363">
        <ele>525</ele>
        <time>2010-11-11T15:57:39.000Z</time>
      </trkpt>
      <trkpt lat="45.03643" lon="5.2436">
        <ele>521.59997558594</ele>
        <time>2010-11-11T15:57:51.000Z</time>
      </trkpt>
      <trkpt lat="45.03615" lon="5.24357">
        <ele>517.59997558594</ele>
        <time>2010-11-11T15:58:05.000Z</time>
      </trkpt>
      <trkpt lat="45.03586" lon="5.24357">
        <ele>513.20001220703</ele>
        <time>2010-11-11T15:58:19.000Z</time>
      </trkpt>
      <trkpt lat="45.03563" lon="5.24357">
        <ele>507.60000610352</ele>
        <time>2010-11-11T15:58:29.000Z</time>
      </trkpt>
      <trkpt lat="45.03569" lon="5.24344">
        <ele>509.20001220703</ele>
        <time>2010-11-11T15:58:38.000Z</time>
      </trkpt>
      <trkpt lat="45.03593" lon="5.24338">
        <ele>514.40002441406</ele>
        <time>2010-11-11T15:58:48.000Z</time>
      </trkpt>
      <trkpt lat="45.03589" lon="5.24319">
        <ele>515.40002441406</ele>
        <time>2010-11-11T15:58:54.000Z</time>
      </trkpt>
      <trkpt lat="45.03566" lon="5.2431">
        <ele>510.79998779297</ele>
        <time>2010-11-11T15:59:01.000Z</time>
      </trkpt>
      <trkpt lat="45.03546" lon="5.24283">
        <ele>508</ele>
        <time>2010-11-11T15:59:13.000Z</time>
      </trkpt>
      <trkpt lat="45.03519" lon="5.24252">
        <ele>503.60000610352</ele>
        <time>2010-11-11T15:59:28.000Z</time>
      </trkpt>
      <trkpt lat="45.03489" lon="5.2425">
        <ele>497.20001220703</ele>
        <time>2010-11-11T15:59:41.000Z</time>
      </trkpt>
      <trkpt lat="45.03471" lon="5.24254">
        <ele>493.60000610352</ele>
        <time>2010-11-11T15:59:53.000Z</time>
      </trkpt>
      <trkpt lat="45.03438" lon="5.24248">
        <ele>489.79998779297</ele>
        <time>2010-11-11T16:00:08.000Z</time>
      </trkpt>
      <trkpt lat="45.03412" lon="5.24241">
        <ele>489.60000610352</ele>
        <time>2010-11-11T16:00:22.000Z</time>
      </trkpt>
      <trkpt lat="45.03393" lon="5.24238">
        <ele>490.79998779297</ele>
        <time>2010-11-11T16:00:31.000Z</time>
      </trkpt>
      <trkpt lat="45.03367" lon="5.24244">
        <ele>487.39999389648</ele>
        <time>2010-11-11T16:00:44.000Z</time>
      </trkpt>
      <trkpt lat="45.03362" lon="5.24244">
        <ele>487</ele>
        <time>2010-11-11T16:00:46.000Z</time>
      </trkpt>
      <trkpt lat="45.0334" lon="5.24235">
        <ele>491.39999389648</ele>
        <time>2010-11-11T16:00:58.000Z</time>
      </trkpt>
      <trkpt lat="45.03317" lon="5.24226">
        <ele>495</ele>
        <time>2010-11-11T16:01:11.000Z</time>
      </trkpt>
      <trkpt lat="45.03308" lon="5.24225">
        <ele>495</ele>
        <time>2010-11-11T16:01:15.000Z</time>
      </trkpt>
      <trkpt lat="45.03296" lon="5.24224">
        <ele>494.60000610352</ele>
        <time>2010-11-11T16:01:20.000Z</time>
      </trkpt>
      <trkpt lat="45.03284" lon="5.24228">
        <ele>492</ele>
        <time>2010-11-11T16:01:25.000Z</time>
      </trkpt>
      <trkpt lat="45.0326" lon="5.2426">
        <ele>480.79998779297</ele>
        <time>2010-11-11T16:01:39.000Z</time>
      </trkpt>
      <trkpt lat="45.03235" lon="5.24294">
        <ele>477.60000610352</ele>
        <time>2010-11-11T16:01:53.000Z</time>
      </trkpt>
      <trkpt lat="45.03209" lon="5.2431">
        <ele>477.79998779297</ele>
        <time>2010-11-11T16:02:06.000Z</time>
      </trkpt>
      <trkpt lat="45.03186" lon="5.24322">
        <ele>478.79998779297</ele>
        <time>2010-11-11T16:02:18.000Z</time>
      </trkpt>
      <trkpt lat="45.03174" lon="5.24353">
        <ele>477.79998779297</ele>
        <time>2010-11-11T16:02:29.000Z</time>
      </trkpt>
      <trkpt lat="45.03168" lon="5.24381">
        <ele>476.39999389648</ele>
        <time>2010-11-11T16:02:39.000Z</time>
      </trkpt>
      <trkpt lat="45.03158" lon="5.24415">
        <ele>475</ele>
        <time>2010-11-11T16:02:52.000Z</time>
      </trkpt>
      <trkpt lat="45.0315" lon="5.24454">
        <ele>474.39999389648</ele>
        <time>2010-11-11T16:03:04.000Z</time>
      </trkpt>
      <trkpt lat="45.03139" lon="5.24492">
        <ele>474.20001220703</ele>
        <time>2010-11-11T16:03:16.000Z</time>
      </trkpt>
      <trkpt lat="45.03132" lon="5.2453">
        <ele>474.39999389648</ele>
        <time>2010-11-11T16:03:29.000Z</time>
      </trkpt>
      <trkpt lat="45.03131" lon="5.2455">
        <ele>474.39999389648</ele>
        <time>2010-11-11T16:03:41.000Z</time>
      </trkpt>
      <trkpt lat="45.0313" lon="5.24557">
        <ele>474.39999389648</ele>
        <time>2010-11-11T16:03:45.000Z</time>
      </trkpt>
      <trkpt lat="45.03127" lon="5.24565">
        <ele>474.39999389648</ele>
        <time>2010-11-11T16:03:50.000Z</time>
      </trkpt>
      <trkpt lat="45.03122" lon="5.24575">
        <ele>474.60000610352</ele>
        <time>2010-11-11T16:04:00.000Z</time>
      </trkpt>
    </trkseg>
  </trk>
</gpx>